PWSweather.com
Personal Weather Stations
Station Observations
DL5ARK
SonnebergDE

SonnebergDE

Lat: 50.34904861, Lon: 11.18112087

Elevation: 1214

Station Type: Selfmade

http://www.sumbarg.de

High Low Average
Temperature 47.8°F8.8°C 37.6°F3.1°C 42.5°F5.8°C
Dew Point 49.2°F9.6°C 42.1°F5.6°C 45.6°F7.6°C
Winds 3.7 mph 6.0 kmh Calm Calm Calm WSWCalm WSW
Wind Gusts 3.8 mph6.1 kmh -- --
Humidity 90% 81% 86%
Pressure 30.17 in1021.7 mb 30.03 in1016.9 mb -
Precipitation 0.10 in2.5 mm - -
Hour Temp Dew Point Humidity Winds Wind Gusts Pressure Precip Precip Rate Daily Precip Total
12:01 AM 41.7°F5.4°C 43.5°F6.4°C 82% 0.4 mph NNW0.6 kmh NNW 0.4 mph0.6 kmh 30.18 in1022.0 mb 0.00 in0.0 mm 0.00 in0.0 mm 0.00 in0.0 mm
12:04 AM 41.6°F5.3°C 43.8°F6.6°C 83% Calm Calm -- 30.18 in1022.0 mb 0.00 in0.0 mm 0.00 in0.0 mm 0.00 in0.0 mm
12:07 AM 41.7°F5.4°C 43.7°F6.5°C 83% Calm Calm -- 30.18 in1022.0 mb 0.00 in0.0 mm 0.00 in0.0 mm 0.00 in0.0 mm
12:10 AM 41.7°F5.4°C 43.6°F6.4°C 82% 4.0 mph NW6.4 kmh NW 4.1 mph6.6 kmh 30.18 in1022.0 mb 0.00 in0.0 mm 0.00 in0.0 mm 0.00 in0.0 mm
12:13 AM 41.7°F5.4°C 43.5°F6.4°C 82% Calm Calm -- 30.18 in1022.0 mb 0.00 in0.0 mm 0.00 in0.0 mm 0.00 in0.0 mm
12:16 AM 41.8°F5.4°C 43.3°F6.3°C 82% Calm Calm -- 30.17 in1021.7 mb 0.00 in0.0 mm 0.00 in0.0 mm 0.00 in0.0 mm
12:19 AM 41.7°F5.4°C 43.3°F6.3°C 82% 3.6 mph NW5.8 kmh NW 3.7 mph6.0 kmh 30.18 in1022.0 mb 0.00 in0.0 mm 0.00 in0.0 mm 0.00 in0.0 mm
12:22 AM 41.7°F5.4°C 43.3°F6.3°C 81% 2.3 mph NW3.7 kmh NW 2.4 mph3.9 kmh 30.17 in1021.7 mb 0.00 in0.0 mm 0.00 in0.0 mm 0.00 in0.0 mm
12:25 AM 41.7°F5.4°C 43.3°F6.3°C 81% Calm Calm -- 30.17 in1021.7 mb 0.00 in0.0 mm 0.00 in0.0 mm 0.00 in0.0 mm
12:28 AM 41.7°F5.4°C 43.2°F6.2°C 81% Calm Calm -- 30.17 in1021.7 mb 0.00 in0.0 mm 0.00 in0.0 mm 0.00 in0.0 mm
12:31 AM 41.6°F5.3°C 43.3°F6.3°C 81% Calm Calm -- 30.17 in1021.7 mb 0.00 in0.0 mm 0.00 in0.0 mm 0.00 in0.0 mm
12:34 AM 41.6°F5.3°C 43.4°F6.3°C 82% Calm Calm -- 30.17 in1021.7 mb 0.00 in0.0 mm 0.00 in0.0 mm 0.00 in0.0 mm
12:37 AM 41.6°F5.3°C 43.4°F6.3°C 81% Calm Calm -- 30.17 in1021.7 mb 0.00 in0.0 mm 0.00 in0.0 mm 0.00 in0.0 mm
12:40 AM 41.6°F5.3°C 43.5°F6.4°C 81% Calm Calm -- 30.17 in1021.7 mb 0.00 in0.0 mm 0.00 in0.0 mm 0.00 in0.0 mm
12:43 AM 41.6°F5.3°C 43.4°F6.3°C 81% Calm Calm -- 30.17 in1021.7 mb 0.00 in0.0 mm 0.00 in0.0 mm 0.00 in0.0 mm
12:46 AM 41.7°F5.4°C 43.4°F6.3°C 81% Calm Calm -- 30.17 in1021.7 mb 0.00 in0.0 mm 0.00 in0.0 mm 0.00 in0.0 mm
12:49 AM 41.7°F5.4°C 43.3°F6.3°C 81% 2.0 mph WNW3.2 kmh WNW 2.0 mph3.2 kmh 30.17 in1021.7 mb 0.00 in0.0 mm 0.00 in0.0 mm 0.00 in0.0 mm
12:52 AM 41.7°F5.4°C 43.2°F6.2°C 81% Calm Calm -- 30.17 in1021.7 mb 0.00 in0.0 mm 0.00 in0.0 mm 0.00 in0.0 mm
12:55 AM 41.6°F5.3°C 43.1°F6.2°C 81% Calm Calm -- 30.17 in1021.7 mb 0.00 in0.0 mm 0.00 in0.0 mm 0.00 in0.0 mm
12:58 AM 41.6°F5.3°C 43.4°F6.3°C 81% Calm Calm -- 30.17 in1021.7 mb 0.00 in0.0 mm 0.00 in0.0 mm 0.00 in0.0 mm
01:01 AM 41.6°F5.3°C 43.3°F6.3°C 81% Calm Calm -- 30.17 in1021.7 mb 0.00 in0.0 mm 0.00 in0.0 mm 0.00 in0.0 mm
01:04 AM 41.6°F5.3°C 43.3°F6.3°C 81% Calm Calm -- 30.17 in1021.7 mb 0.00 in0.0 mm 0.00 in0.0 mm 0.00 in0.0 mm
01:07 AM 41.6°F5.3°C 43.4°F6.3°C 81% Calm Calm -- 30.17 in1021.7 mb 0.00 in0.0 mm 0.00 in0.0 mm 0.00 in0.0 mm
01:10 AM 41.6°F5.3°C 43.0°F6.1°C 81% Calm Calm -- 30.17 in1021.7 mb 0.00 in0.0 mm 0.00 in0.0 mm 0.00 in0.0 mm
01:13 AM 41.6°F5.3°C 43.5°F6.4°C 82% 2.0 mph NNW3.2 kmh NNW 2.0 mph3.2 kmh 30.17 in1021.7 mb 0.00 in0.0 mm 0.00 in0.0 mm 0.00 in0.0 mm
01:16 AM 41.6°F5.3°C 43.6°F6.4°C 82% 1.1 mph NNW1.8 kmh NNW 1.2 mph1.9 kmh 30.17 in1021.7 mb 0.00 in0.0 mm 0.00 in0.0 mm 0.00 in0.0 mm
01:19 AM 41.6°F5.3°C 43.2°F6.2°C 82% 1.6 mph W2.6 kmh W 1.6 mph2.6 kmh 30.17 in1021.7 mb 0.00 in0.0 mm 0.00 in0.0 mm 0.00 in0.0 mm
01:22 AM 41.5°F5.3°C 43.4°F6.3°C 82% 1.2 mph WSW1.9 kmh WSW 1.2 mph1.9 kmh 30.17 in1021.7 mb 0.00 in0.0 mm 0.00 in0.0 mm 0.00 in0.0 mm
01:25 AM 41.5°F5.3°C 43.5°F6.4°C 82% 3.5 mph W5.6 kmh W 3.5 mph5.6 kmh 30.17 in1021.7 mb 0.00 in0.0 mm 0.00 in0.0 mm 0.00 in0.0 mm
01:31 AM 41.5°F5.3°C 43.1°F6.2°C 81% Calm Calm -- 30.17 in1021.7 mb 0.00 in0.0 mm 0.00 in0.0 mm 0.00 in0.0 mm
01:34 AM 41.5°F5.3°C 43.4°F6.3°C 82% 2.3 mph NNW3.7 kmh NNW 2.3 mph3.7 kmh 30.17 in1021.7 mb 0.00 in0.0 mm 0.00 in0.0 mm 0.00 in0.0 mm
01:37 AM 41.5°F5.3°C 43.1°F6.2°C 82% Calm Calm -- 30.16 in1021.3 mb 0.00 in0.0 mm 0.00 in0.0 mm 0.00 in0.0 mm
01:40 AM 41.5°F5.3°C 43.3°F6.3°C 82% 3.2 mph WSW5.1 kmh WSW 3.3 mph5.3 kmh 30.16 in1021.3 mb 0.00 in0.0 mm 0.00 in0.0 mm 0.00 in0.0 mm
01:43 AM 41.5°F5.3°C 43.2°F6.2°C 81% Calm Calm -- 30.17 in1021.7 mb 0.00 in0.0 mm 0.00 in0.0 mm 0.00 in0.0 mm
01:46 AM 41.5°F5.3°C 43.2°F6.2°C 81% Calm Calm -- 30.16 in1021.3 mb 0.00 in0.0 mm 0.00 in0.0 mm 0.00 in0.0 mm
01:49 AM 41.5°F5.3°C 43.3°F6.3°C 82% Calm Calm -- 30.15 in1021.0 mb 0.00 in0.0 mm 0.00 in0.0 mm 0.00 in0.0 mm
01:52 AM 41.5°F5.3°C 43.2°F6.2°C 82% Calm Calm -- 30.15 in1021.0 mb 0.00 in0.0 mm 0.00 in0.0 mm 0.00 in0.0 mm
01:55 AM 41.5°F5.3°C 43.3°F6.3°C 82% Calm Calm -- 30.15 in1021.0 mb 0.00 in0.0 mm 0.00 in0.0 mm 0.00 in0.0 mm
01:58 AM 41.3°F5.2°C 43.0°F6.1°C 82% Calm Calm -- 30.16 in1021.3 mb 0.00 in0.0 mm 0.00 in0.0 mm 0.00 in0.0 mm
02:01 AM 41.3°F5.2°C 43.2°F6.2°C 81% 1.2 mph NNW1.9 kmh NNW 1.2 mph1.9 kmh 30.16 in1021.3 mb 0.00 in0.0 mm 0.00 in0.0 mm 0.00 in0.0 mm
02:04 AM 41.3°F5.2°C 43.1°F6.2°C 82% 1.6 mph W2.6 kmh W 1.6 mph2.6 kmh 30.16 in1021.3 mb 0.00 in0.0 mm 0.00 in0.0 mm 0.00 in0.0 mm
02:07 AM 41.3°F5.2°C 43.4°F6.3°C 82% Calm Calm -- 30.16 in1021.3 mb 0.00 in0.0 mm 0.00 in0.0 mm 0.00 in0.0 mm
02:10 AM 41.3°F5.2°C 43.3°F6.3°C 82% Calm Calm -- 30.15 in1021.0 mb 0.00 in0.0 mm 0.00 in0.0 mm 0.00 in0.0 mm
02:13 AM 41.3°F5.2°C 43.0°F6.1°C 82% 1.6 mph WNW2.6 kmh WNW 1.6 mph2.6 kmh 30.15 in1021.0 mb 0.00 in0.0 mm 0.00 in0.0 mm 0.00 in0.0 mm
02:16 AM 41.3°F5.2°C 43.1°F6.2°C 82% 0.8 mph W1.3 kmh W 0.8 mph1.3 kmh 30.15 in1021.0 mb 0.00 in0.0 mm 0.00 in0.0 mm 0.00 in0.0 mm
02:19 AM 41.3°F5.2°C 43.2°F6.2°C 82% Calm Calm -- 30.15 in1021.0 mb 0.00 in0.0 mm 0.00 in0.0 mm 0.00 in0.0 mm
02:22 AM 41.3°F5.2°C 43.3°F6.3°C 82% Calm Calm -- 30.15 in1021.0 mb 0.00 in0.0 mm 0.00 in0.0 mm 0.00 in0.0 mm
02:25 AM 41.2°F5.1°C 43.4°F6.3°C 82% 0.8 mph WNW1.3 kmh WNW 0.8 mph1.3 kmh 30.15 in1021.0 mb 0.00 in0.0 mm 0.00 in0.0 mm 0.00 in0.0 mm
02:28 AM 41.2°F5.1°C 43.3°F6.3°C 82% Calm Calm -- 30.15 in1021.0 mb 0.00 in0.0 mm 0.00 in0.0 mm 0.00 in0.0 mm
02:31 AM 41.1°F5.1°C 43.2°F6.2°C 82% Calm Calm -- 30.15 in1021.0 mb 0.00 in0.0 mm 0.00 in0.0 mm 0.00 in0.0 mm
02:34 AM 41.1°F5.1°C 43.2°F6.2°C 82% Calm Calm -- 30.15 in1021.0 mb 0.00 in0.0 mm 0.00 in0.0 mm 0.00 in0.0 mm
02:37 AM 41.0°F5.0°C 43.3°F6.3°C 82% Calm Calm -- 30.15 in1021.0 mb 0.00 in0.0 mm 0.00 in0.0 mm 0.00 in0.0 mm
02:40 AM 41.1°F5.1°C 43.1°F6.2°C 81% Calm Calm -- 30.15 in1021.0 mb 0.00 in0.0 mm 0.00 in0.0 mm 0.00 in0.0 mm
02:46 AM 41.1°F5.1°C 43.3°F6.3°C 82% Calm Calm -- 30.15 in1021.0 mb 0.00 in0.0 mm 0.00 in0.0 mm 0.00 in0.0 mm
02:49 AM 41.1°F5.1°C 43.3°F6.3°C 82% Calm Calm -- 30.15 in1021.0 mb 0.00 in0.0 mm 0.00 in0.0 mm 0.00 in0.0 mm
02:52 AM 41.0°F5.0°C 43.4°F6.3°C 83% Calm Calm -- 30.15 in1021.0 mb 0.00 in0.0 mm 0.00 in0.0 mm 0.00 in0.0 mm
02:55 AM 41.0°F5.0°C 43.1°F6.2°C 82% Calm Calm -- 30.15 in1021.0 mb 0.00 in0.0 mm 0.00 in0.0 mm 0.00 in0.0 mm
02:58 AM 41.0°F5.0°C 43.4°F6.3°C 83% 0.4 mph W0.6 kmh W 0.4 mph0.6 kmh 30.15 in1021.0 mb 0.00 in0.0 mm 0.00 in0.0 mm 0.00 in0.0 mm
03:01 AM 41.0°F5.0°C 43.4°F6.3°C 83% Calm Calm -- 30.15 in1021.0 mb 0.00 in0.0 mm 0.00 in0.0 mm 0.00 in0.0 mm
03:04 AM 41.0°F5.0°C 43.1°F6.2°C 83% 1.6 mph W2.6 kmh W 1.6 mph2.6 kmh 30.15 in1021.0 mb 0.00 in0.0 mm 0.00 in0.0 mm 0.00 in0.0 mm
03:07 AM 41.0°F5.0°C 43.4°F6.3°C 83% Calm Calm -- 30.15 in1021.0 mb 0.00 in0.0 mm 0.00 in0.0 mm 0.00 in0.0 mm
03:10 AM 41.0°F5.0°C 43.4°F6.3°C 83% 0.4 mph WNW0.6 kmh WNW 0.4 mph0.6 kmh 30.15 in1021.0 mb 0.00 in0.0 mm 0.00 in0.0 mm 0.00 in0.0 mm
03:13 AM 41.0°F5.0°C 43.4°F6.3°C 83% 1.6 mph NW2.6 kmh NW 1.6 mph2.6 kmh 30.15 in1021.0 mb 0.00 in0.0 mm 0.00 in0.0 mm 0.00 in0.0 mm
03:16 AM 41.0°F5.0°C 43.5°F6.4°C 83% Calm Calm -- 30.14 in1020.7 mb 0.00 in0.0 mm 0.00 in0.0 mm 0.00 in0.0 mm
03:22 AM 40.9°F4.9°C 43.0°F6.1°C 82% 0.8 mph NW1.3 kmh NW 0.8 mph1.3 kmh 30.14 in1020.7 mb 0.00 in0.0 mm 0.00 in0.0 mm 0.00 in0.0 mm
03:25 AM 40.9°F4.9°C 43.3°F6.3°C 83% 1.2 mph NNW1.9 kmh NNW 1.2 mph1.9 kmh 30.14 in1020.7 mb 0.00 in0.0 mm 0.00 in0.0 mm 0.00 in0.0 mm
03:28 AM 40.9°F4.9°C 43.0°F6.1°C 82% Calm Calm -- 30.14 in1020.7 mb 0.00 in0.0 mm 0.00 in0.0 mm 0.00 in0.0 mm
03:31 AM 40.9°F4.9°C 43.3°F6.3°C 83% Calm Calm -- 30.14 in1020.7 mb 0.00 in0.0 mm 0.00 in0.0 mm 0.00 in0.0 mm
03:34 AM 40.9°F4.9°C 43.2°F6.2°C 83% Calm Calm -- 30.14 in1020.7 mb 0.00 in0.0 mm 0.00 in0.0 mm 0.00 in0.0 mm
03:37 AM 41.0°F5.0°C 43.3°F6.3°C 83% Calm Calm -- 30.14 in1020.7 mb 0.00 in0.0 mm 0.00 in0.0 mm 0.00 in0.0 mm
03:40 AM 41.0°F5.0°C 43.3°F6.3°C 83% Calm Calm -- 30.14 in1020.7 mb 0.00 in0.0 mm 0.00 in0.0 mm 0.00 in0.0 mm
03:43 AM 41.0°F5.0°C 43.3°F6.3°C 83% Calm Calm -- 30.14 in1020.7 mb 0.00 in0.0 mm 0.00 in0.0 mm 0.00 in0.0 mm
03:46 AM 40.9°F4.9°C 43.3°F6.3°C 83% Calm Calm -- 30.14 in1020.7 mb 0.00 in0.0 mm 0.00 in0.0 mm 0.00 in0.0 mm
03:49 AM 40.8°F4.9°C 43.3°F6.3°C 83% Calm Calm -- 30.14 in1020.7 mb 0.00 in0.0 mm 0.00 in0.0 mm 0.00 in0.0 mm
03:52 AM 40.9°F4.9°C 43.5°F6.4°C 83% Calm Calm -- 30.14 in1020.7 mb 0.00 in0.0 mm 0.00 in0.0 mm 0.00 in0.0 mm
03:55 AM 40.9°F4.9°C 43.3°F6.3°C 84% Calm Calm -- 30.14 in1020.7 mb 0.00 in0.0 mm 0.00 in0.0 mm 0.00 in0.0 mm
03:58 AM 40.9°F4.9°C 43.6°F6.4°C 84% Calm Calm -- 30.14 in1020.7 mb 0.00 in0.0 mm 0.00 in0.0 mm 0.00 in0.0 mm
04:01 AM 40.9°F4.9°C 43.3°F6.3°C 84% Calm Calm -- 30.14 in1020.7 mb 0.00 in0.0 mm 0.00 in0.0 mm 0.00 in0.0 mm
04:04 AM 40.9°F4.9°C 43.3°F6.3°C 84% Calm Calm -- 30.14 in1020.7 mb 0.00 in0.0 mm 0.00 in0.0 mm 0.00 in0.0 mm
04:07 AM 40.9°F4.9°C 43.7°F6.5°C 84% Calm Calm -- 30.14 in1020.7 mb 0.00 in0.0 mm 0.00 in0.0 mm 0.00 in0.0 mm
04:10 AM 40.8°F4.9°C 43.6°F6.4°C 84% Calm Calm -- 30.14 in1020.7 mb 0.00 in0.0 mm 0.00 in0.0 mm 0.00 in0.0 mm
04:13 AM 40.8°F4.9°C 43.5°F6.4°C 84% Calm Calm -- 30.14 in1020.7 mb 0.00 in0.0 mm 0.00 in0.0 mm 0.00 in0.0 mm
04:16 AM 40.8°F4.9°C 43.6°F6.4°C 84% Calm Calm -- 30.14 in1020.7 mb 0.00 in0.0 mm 0.00 in0.0 mm 0.00 in0.0 mm
04:19 AM 40.8°F4.9°C 43.6°F6.4°C 84% Calm Calm -- 30.14 in1020.7 mb 0.00 in0.0 mm 0.00 in0.0 mm 0.00 in0.0 mm
04:22 AM 40.8°F4.9°C 43.7°F6.5°C 84% Calm Calm -- 30.13 in1020.3 mb 0.00 in0.0 mm 0.00 in0.0 mm 0.00 in0.0 mm
04:25 AM 40.8°F4.9°C 43.7°F6.5°C 85% Calm Calm -- 30.13 in1020.3 mb 0.00 in0.0 mm 0.00 in0.0 mm 0.00 in0.0 mm
04:28 AM 40.8°F4.9°C 43.7°F6.5°C 84% Calm Calm -- 30.13 in1020.3 mb 0.00 in0.0 mm 0.00 in0.0 mm 0.00 in0.0 mm
04:31 AM 40.8°F4.9°C 43.8°F6.6°C 84% Calm Calm -- 30.13 in1020.3 mb 0.00 in0.0 mm 0.00 in0.0 mm 0.00 in0.0 mm
04:34 AM 40.7°F4.8°C 43.5°F6.4°C 85% Calm Calm -- 30.13 in1020.3 mb 0.00 in0.0 mm 0.00 in0.0 mm 0.00 in0.0 mm
04:37 AM 40.7°F4.8°C 43.7°F6.5°C 85% Calm Calm -- 30.13 in1020.3 mb 0.00 in0.0 mm 0.00 in0.0 mm 0.00 in0.0 mm
04:40 AM 40.8°F4.9°C 43.7°F6.5°C 85% Calm Calm -- 30.13 in1020.3 mb 0.00 in0.0 mm 0.00 in0.0 mm 0.00 in0.0 mm
04:43 AM 40.8°F4.9°C 43.7°F6.5°C 85% Calm Calm -- 30.13 in1020.3 mb 0.00 in0.0 mm 0.00 in0.0 mm 0.00 in0.0 mm
04:46 AM 40.8°F4.9°C 43.6°F6.4°C 85% Calm Calm -- 30.13 in1020.3 mb 0.00 in0.0 mm 0.00 in0.0 mm 0.00 in0.0 mm
04:49 AM 40.7°F4.8°C 43.7°F6.5°C 85% Calm Calm -- 30.13 in1020.3 mb 0.00 in0.0 mm 0.00 in0.0 mm 0.00 in0.0 mm
04:52 AM 40.8°F4.9°C 43.8°F6.6°C 85% Calm Calm -- 30.13 in1020.3 mb 0.00 in0.0 mm 0.00 in0.0 mm 0.00 in0.0 mm
04:55 AM 40.7°F4.8°C 43.8°F6.6°C 85% Calm Calm -- 30.13 in1020.3 mb 0.00 in0.0 mm 0.00 in0.0 mm 0.00 in0.0 mm
04:58 AM 40.8°F4.9°C 44.0°F6.7°C 85% Calm Calm -- 30.13 in1020.3 mb 0.00 in0.0 mm 0.00 in0.0 mm 0.00 in0.0 mm
05:01 AM 40.8°F4.9°C 43.8°F6.6°C 85% Calm Calm -- 30.13 in1020.3 mb 0.00 in0.0 mm 0.00 in0.0 mm 0.00 in0.0 mm
05:04 AM 40.7°F4.8°C 43.9°F6.6°C 86% Calm Calm -- 30.13 in1020.3 mb 0.00 in0.0 mm 0.00 in0.0 mm 0.00 in0.0 mm
05:07 AM 40.7°F4.8°C 43.7°F6.5°C 85% Calm Calm -- 30.13 in1020.3 mb 0.00 in0.0 mm 0.00 in0.0 mm 0.00 in0.0 mm
05:10 AM 40.7°F4.8°C 43.8°F6.6°C 85% Calm Calm -- 30.13 in1020.3 mb 0.00 in0.0 mm 0.00 in0.0 mm 0.00 in0.0 mm
05:13 AM 40.7°F4.8°C 43.8°F6.6°C 86% Calm Calm -- 30.13 in1020.3 mb 0.00 in0.0 mm 0.00 in0.0 mm 0.00 in0.0 mm
05:16 AM 40.7°F4.8°C 43.8°F6.6°C 86% Calm Calm -- 30.13 in1020.3 mb 0.00 in0.0 mm 0.00 in0.0 mm 0.00 in0.0 mm
05:19 AM 40.7°F4.8°C 44.0°F6.7°C 86% Calm Calm -- 30.13 in1020.3 mb 0.00 in0.0 mm 0.00 in0.0 mm 0.00 in0.0 mm
05:22 AM 40.6°F4.8°C 43.9°F6.6°C 86% Calm Calm -- 30.13 in1020.3 mb 0.00 in0.0 mm 0.00 in0.0 mm 0.00 in0.0 mm
05:25 AM 40.7°F4.8°C 43.8°F6.6°C 86% Calm Calm -- 30.12 in1020.0 mb 0.00 in0.0 mm 0.00 in0.0 mm 0.00 in0.0 mm
05:28 AM 40.6°F4.8°C 44.1°F6.7°C 86% Calm Calm -- 30.12 in1020.0 mb 0.00 in0.0 mm 0.00 in0.0 mm 0.00 in0.0 mm
05:31 AM 40.7°F4.8°C 44.0°F6.7°C 86% Calm Calm -- 30.13 in1020.3 mb 0.00 in0.0 mm 0.00 in0.0 mm 0.00 in0.0 mm
05:34 AM 40.6°F4.8°C 43.8°F6.6°C 86% Calm Calm -- 30.13 in1020.3 mb 0.00 in0.0 mm 0.00 in0.0 mm 0.00 in0.0 mm
05:37 AM 40.6°F4.8°C 44.2°F6.8°C 86% Calm Calm -- 30.13 in1020.3 mb 0.00 in0.0 mm 0.00 in0.0 mm 0.00 in0.0 mm
05:40 AM 40.6°F4.8°C 44.1°F6.7°C 86% Calm Calm -- 30.13 in1020.3 mb 0.00 in0.0 mm 0.00 in0.0 mm 0.00 in0.0 mm
05:43 AM 40.6°F4.8°C 43.8°F6.6°C 86% Calm Calm -- 30.13 in1020.3 mb 0.00 in0.0 mm 0.00 in0.0 mm 0.00 in0.0 mm
05:46 AM 40.6°F4.8°C 44.1°F6.7°C 86% Calm Calm -- 30.13 in1020.3 mb 0.00 in0.0 mm 0.00 in0.0 mm 0.02 in0.5 mm
05:49 AM 40.6°F4.8°C 43.9°F6.6°C 86% Calm Calm -- 30.13 in1020.3 mb 0.00 in0.0 mm 0.00 in0.0 mm 0.02 in0.5 mm
05:52 AM 40.6°F4.8°C 44.1°F6.7°C 87% Calm Calm -- 30.13 in1020.3 mb 0.00 in0.0 mm 0.00 in0.0 mm 0.02 in0.5 mm
05:55 AM 40.4°F4.7°C 44.1°F6.7°C 86% Calm Calm -- 30.13 in1020.3 mb 0.00 in0.0 mm 0.00 in0.0 mm 0.02 in0.5 mm
05:58 AM 40.6°F4.8°C 44.1°F6.7°C 87% Calm Calm -- 30.13 in1020.3 mb 0.00 in0.0 mm 0.00 in0.0 mm 0.02 in0.5 mm
06:01 AM 40.6°F4.8°C 43.9°F6.6°C 86% Calm Calm -- 30.13 in1020.3 mb 0.00 in0.0 mm 0.00 in0.0 mm 0.02 in0.5 mm
06:04 AM 40.4°F4.7°C 43.9°F6.6°C 86% Calm Calm -- 30.13 in1020.3 mb 0.00 in0.0 mm 0.00 in0.0 mm 0.02 in0.5 mm
06:07 AM 40.4°F4.7°C 44.0°F6.7°C 86% Calm Calm -- 30.13 in1020.3 mb 0.00 in0.0 mm 0.00 in0.0 mm 0.02 in0.5 mm
06:10 AM 40.4°F4.7°C 44.0°F6.7°C 87% Calm Calm -- 30.13 in1020.3 mb 0.00 in0.0 mm 0.00 in0.0 mm 0.04 in1.0 mm
06:13 AM 40.4°F4.7°C 43.9°F6.6°C 87% Calm Calm -- 30.13 in1020.3 mb 0.00 in0.0 mm 0.00 in0.0 mm 0.04 in1.0 mm
06:16 AM 40.4°F4.7°C 43.8°F6.6°C 86% Calm Calm -- 30.13 in1020.3 mb 0.00 in0.0 mm 0.00 in0.0 mm 0.04 in1.0 mm
06:19 AM 40.4°F4.7°C 44.0°F6.7°C 87% Calm Calm -- 30.13 in1020.3 mb 0.00 in0.0 mm 0.00 in0.0 mm 0.04 in1.0 mm
06:22 AM 40.4°F4.7°C 44.0°F6.7°C 87% Calm Calm -- 30.13 in1020.3 mb 0.00 in0.0 mm 0.00 in0.0 mm 0.04 in1.0 mm
06:25 AM 40.3°F4.6°C 43.9°F6.6°C 87% Calm Calm -- 30.13 in1020.3 mb 0.00 in0.0 mm 0.00 in0.0 mm 0.04 in1.0 mm
06:28 AM 40.3°F4.6°C 44.1°F6.7°C 87% Calm Calm -- 30.13 in1020.3 mb 0.00 in0.0 mm 0.00 in0.0 mm 0.04 in1.0 mm
06:31 AM 40.4°F4.7°C 43.6°F6.4°C 86% Calm Calm -- 30.13 in1020.3 mb 0.00 in0.0 mm 0.00 in0.0 mm 0.04 in1.0 mm
06:34 AM 40.4°F4.7°C 44.0°F6.7°C 87% Calm Calm -- 30.13 in1020.3 mb 0.00 in0.0 mm 0.00 in0.0 mm 0.04 in1.0 mm
06:37 AM 40.4°F4.7°C 44.0°F6.7°C 87% Calm Calm -- 30.13 in1020.3 mb 0.00 in0.0 mm 0.00 in0.0 mm 0.04 in1.0 mm
06:40 AM 40.4°F4.7°C 44.0°F6.7°C 87% Calm Calm -- 30.13 in1020.3 mb 0.00 in0.0 mm 0.00 in0.0 mm 0.04 in1.0 mm
06:43 AM 40.3°F4.6°C 43.8°F6.6°C 86% Calm Calm -- 30.13 in1020.3 mb 0.00 in0.0 mm 0.00 in0.0 mm 0.06 in1.5 mm
06:46 AM 40.4°F4.7°C 44.1°F6.7°C 87% Calm Calm -- 30.13 in1020.3 mb 0.00 in0.0 mm 0.00 in0.0 mm 0.06 in1.5 mm
06:49 AM 40.4°F4.7°C 44.3°F6.8°C 87% 0.8 mph SW1.3 kmh SW 0.8 mph1.3 kmh 30.13 in1020.3 mb 0.00 in0.0 mm 0.00 in0.0 mm 0.06 in1.5 mm
06:52 AM 40.4°F4.7°C 43.9°F6.6°C 87% Calm Calm -- 30.13 in1020.3 mb 0.00 in0.0 mm 0.00 in0.0 mm 0.06 in1.5 mm
06:55 AM 40.3°F4.6°C 44.1°F6.7°C 88% Calm Calm -- 30.13 in1020.3 mb 0.00 in0.0 mm 0.00 in0.0 mm 0.06 in1.5 mm
06:58 AM 40.3°F4.6°C 44.0°F6.7°C 87% 0.4 mph SW0.6 kmh SW 0.4 mph0.6 kmh 30.13 in1020.3 mb 0.00 in0.0 mm 0.00 in0.0 mm 0.06 in1.5 mm
07:01 AM 40.4°F4.7°C 44.0°F6.7°C 87% Calm Calm -- 30.13 in1020.3 mb 0.00 in0.0 mm 0.00 in0.0 mm 0.06 in1.5 mm
07:04 AM 40.4°F4.7°C 44.1°F6.7°C 87% Calm Calm -- 30.13 in1020.3 mb 0.00 in0.0 mm 0.00 in0.0 mm 0.06 in1.5 mm
07:07 AM 40.4°F4.7°C 43.9°F6.6°C 87% Calm Calm -- 30.13 in1020.3 mb 0.00 in0.0 mm 0.00 in0.0 mm 0.06 in1.5 mm
07:10 AM 40.3°F4.6°C 44.0°F6.7°C 88% Calm Calm -- 30.13 in1020.3 mb 0.00 in0.0 mm 0.00 in0.0 mm 0.06 in1.5 mm
07:13 AM 40.3°F4.6°C 44.3°F6.8°C 88% Calm Calm -- 30.13 in1020.3 mb 0.00 in0.0 mm 0.00 in0.0 mm 0.06 in1.5 mm
07:16 AM 40.4°F4.7°C 44.2°F6.8°C 88% Calm Calm -- 30.13 in1020.3 mb 0.00 in0.0 mm 0.00 in0.0 mm 0.06 in1.5 mm
07:19 AM 40.4°F4.7°C 44.1°F6.7°C 88% Calm Calm -- 30.13 in1020.3 mb 0.00 in0.0 mm 0.00 in0.0 mm 0.06 in1.5 mm
07:22 AM 40.4°F4.7°C 44.2°F6.8°C 88% Calm Calm -- 30.13 in1020.3 mb 0.00 in0.0 mm 0.00 in0.0 mm 0.08 in2.0 mm
07:25 AM 40.4°F4.7°C 44.1°F6.7°C 88% Calm Calm -- 30.13 in1020.3 mb 0.00 in0.0 mm 0.00 in0.0 mm 0.08 in2.0 mm
07:28 AM 40.6°F4.8°C 44.1°F6.7°C 88% Calm Calm -- 30.13 in1020.3 mb 0.00 in0.0 mm 0.00 in0.0 mm 0.08 in2.0 mm
07:31 AM 40.4°F4.7°C 44.0°F6.7°C 88% Calm Calm -- 30.13 in1020.3 mb 0.00 in0.0 mm 0.00 in0.0 mm 0.08 in2.0 mm
07:34 AM 40.6°F4.8°C 44.2°F6.8°C 88% Calm Calm -- 30.13 in1020.3 mb 0.00 in0.0 mm 0.00 in0.0 mm 0.08 in2.0 mm
07:37 AM 40.6°F4.8°C 44.3°F6.8°C 88% Calm Calm -- 30.13 in1020.3 mb 0.00 in0.0 mm 0.00 in0.0 mm 0.08 in2.0 mm
07:40 AM 40.6°F4.8°C 44.4°F6.9°C 88% Calm Calm -- 30.14 in1020.7 mb 0.00 in0.0 mm 0.00 in0.0 mm 0.08 in2.0 mm
07:43 AM 40.6°F4.8°C 44.4°F6.9°C 88% Calm Calm -- 30.14 in1020.7 mb 0.00 in0.0 mm 0.00 in0.0 mm 0.08 in2.0 mm
07:46 AM 40.6°F4.8°C 44.3°F6.8°C 88% Calm Calm -- 30.13 in1020.3 mb 0.00 in0.0 mm 0.00 in0.0 mm 0.08 in2.0 mm
07:49 AM 40.6°F4.8°C 44.2°F6.8°C 88% Calm Calm -- 30.14 in1020.7 mb 0.00 in0.0 mm 0.00 in0.0 mm 0.08 in2.0 mm
07:52 AM 40.7°F4.8°C 44.0°F6.7°C 88% Calm Calm -- 30.14 in1020.7 mb 0.00 in0.0 mm 0.00 in0.0 mm 0.08 in2.0 mm
07:55 AM 40.7°F4.8°C 44.3°F6.8°C 88% 0.4 mph WSW0.6 kmh WSW 0.4 mph0.6 kmh 30.14 in1020.7 mb 0.00 in0.0 mm 0.00 in0.0 mm 0.08 in2.0 mm
07:58 AM 40.7°F4.8°C 44.3°F6.8°C 88% Calm Calm -- 30.14 in1020.7 mb 0.00 in0.0 mm 0.00 in0.0 mm 0.08 in2.0 mm
08:01 AM 40.7°F4.8°C 44.3°F6.8°C 88% Calm Calm -- 30.14 in1020.7 mb 0.00 in0.0 mm 0.00 in0.0 mm 0.08 in2.0 mm
08:04 AM 40.8°F4.9°C 44.4°F6.9°C 88% Calm Calm -- 30.14 in1020.7 mb 0.00 in0.0 mm 0.00 in0.0 mm 0.08 in2.0 mm
08:07 AM 40.7°F4.8°C 44.3°F6.8°C 88% Calm Calm -- 30.14 in1020.7 mb 0.00 in0.0 mm 0.00 in0.0 mm 0.08 in2.0 mm
08:10 AM 40.8°F4.9°C 44.3°F6.8°C 88% Calm Calm -- 30.14 in1020.7 mb 0.00 in0.0 mm 0.00 in0.0 mm 0.08 in2.0 mm
08:13 AM 40.8°F4.9°C 44.3°F6.8°C 88% Calm Calm -- 30.14 in1020.7 mb 0.00 in0.0 mm 0.00 in0.0 mm 0.08 in2.0 mm
08:16 AM 40.8°F4.9°C 44.4°F6.9°C 88% Calm Calm -- 30.14 in1020.7 mb 0.00 in0.0 mm 0.00 in0.0 mm 0.08 in2.0 mm
08:19 AM 40.9°F4.9°C 44.4°F6.9°C 88% Calm Calm -- 30.14 in1020.7 mb 0.00 in0.0 mm 0.00 in0.0 mm 0.08 in2.0 mm
08:22 AM 40.9°F4.9°C 44.5°F6.9°C 89% Calm Calm -- 30.14 in1020.7 mb 0.00 in0.0 mm 0.00 in0.0 mm 0.08 in2.0 mm
08:25 AM 41.0°F5.0°C 44.6°F7.0°C 89% Calm Calm -- 30.14 in1020.7 mb 0.00 in0.0 mm 0.00 in0.0 mm 0.08 in2.0 mm
08:28 AM 41.1°F5.1°C 44.4°F6.9°C 89% Calm Calm -- 30.14 in1020.7 mb 0.00 in0.0 mm 0.00 in0.0 mm 0.08 in2.0 mm
08:31 AM 41.0°F5.0°C 44.7°F7.1°C 89% Calm Calm -- 30.14 in1020.7 mb 0.00 in0.0 mm 0.00 in0.0 mm 0.08 in2.0 mm
08:34 AM 41.1°F5.1°C 44.6°F7.0°C 88% Calm Calm -- 30.14 in1020.7 mb 0.00 in0.0 mm 0.00 in0.0 mm 0.08 in2.0 mm
08:37 AM 41.2°F5.1°C 44.4°F6.9°C 88% Calm Calm -- 30.14 in1020.7 mb 0.00 in0.0 mm 0.00 in0.0 mm 0.08 in2.0 mm
08:40 AM 41.2°F5.1°C 44.7°F7.1°C 89% Calm Calm -- 30.14 in1020.7 mb 0.00 in0.0 mm 0.00 in0.0 mm 0.08 in2.0 mm
08:43 AM 41.3°F5.2°C 44.7°F7.1°C 89% Calm Calm -- 30.14 in1020.7 mb 0.00 in0.0 mm 0.00 in0.0 mm 0.08 in2.0 mm
08:46 AM 41.2°F5.1°C 44.4°F6.9°C 87% Calm Calm -- 30.14 in1020.7 mb 0.00 in0.0 mm 0.00 in0.0 mm 0.08 in2.0 mm
08:49 AM 41.3°F5.2°C 44.9°F7.2°C 89% Calm Calm -- 30.14 in1020.7 mb 0.00 in0.0 mm 0.00 in0.0 mm 0.08 in2.0 mm
08:52 AM 41.3°F5.2°C 44.9°F7.2°C 89% Calm Calm -- 30.14 in1020.7 mb 0.00 in0.0 mm 0.00 in0.0 mm 0.08 in2.0 mm
08:55 AM 41.3°F5.2°C 44.9°F7.2°C 89% Calm Calm -- 30.14 in1020.7 mb 0.00 in0.0 mm 0.00 in0.0 mm 0.08 in2.0 mm
08:58 AM 41.3°F5.2°C 45.0°F7.2°C 89% Calm Calm -- 30.15 in1021.0 mb 0.00 in0.0 mm 0.00 in0.0 mm 0.08 in2.0 mm
09:01 AM 41.2°F5.1°C 44.9°F7.2°C 89% Calm Calm -- 30.15 in1021.0 mb 0.00 in0.0 mm 0.00 in0.0 mm 0.08 in2.0 mm
09:04 AM 41.3°F5.2°C 44.8°F7.1°C 89% Calm Calm -- 30.15 in1021.0 mb 0.00 in0.0 mm 0.00 in0.0 mm 0.08 in2.0 mm
09:07 AM 41.5°F5.3°C 45.1°F7.3°C 89% Calm Calm -- 30.15 in1021.0 mb 0.00 in0.0 mm 0.00 in0.0 mm 0.08 in2.0 mm
09:10 AM 41.7°F5.4°C 45.0°F7.2°C 89% Calm Calm -- 30.15 in1021.0 mb 0.00 in0.0 mm 0.00 in0.0 mm 0.08 in2.0 mm
09:13 AM 41.7°F5.4°C 45.0°F7.2°C 89% Calm Calm -- 30.15 in1021.0 mb 0.00 in0.0 mm 0.00 in0.0 mm 0.08 in2.0 mm
09:16 AM 41.6°F5.3°C 45.2°F7.3°C 89% Calm Calm -- 30.15 in1021.0 mb 0.00 in0.0 mm 0.00 in0.0 mm 0.08 in2.0 mm
09:19 AM 41.6°F5.3°C 45.2°F7.3°C 89% Calm Calm -- 30.15 in1021.0 mb 0.00 in0.0 mm 0.00 in0.0 mm 0.08 in2.0 mm
09:22 AM 41.6°F5.3°C 45.2°F7.3°C 89% Calm Calm -- 30.15 in1021.0 mb 0.00 in0.0 mm 0.00 in0.0 mm 0.08 in2.0 mm
09:28 AM 41.6°F5.3°C 44.9°F7.2°C 89% Calm Calm -- 30.15 in1021.0 mb 0.00 in0.0 mm 0.00 in0.0 mm 0.08 in2.0 mm
09:31 AM 41.6°F5.3°C 44.8°F7.1°C 88% Calm Calm -- 30.15 in1021.0 mb 0.00 in0.0 mm 0.00 in0.0 mm 0.08 in2.0 mm
09:34 AM 41.7°F5.4°C 45.0°F7.2°C 89% Calm Calm -- 30.15 in1021.0 mb 0.00 in0.0 mm 0.00 in0.0 mm 0.08 in2.0 mm
09:37 AM 41.8°F5.4°C 45.1°F7.3°C 89% Calm Calm -- 30.14 in1020.7 mb 0.00 in0.0 mm 0.00 in0.0 mm 0.08 in2.0 mm
09:40 AM 41.7°F5.4°C 45.2°F7.3°C 89% Calm Calm -- 30.14 in1020.7 mb 0.00 in0.0 mm 0.00 in0.0 mm 0.08 in2.0 mm
09:43 AM 41.7°F5.4°C 45.2°F7.3°C 89% 0.8 mph SW1.3 kmh SW 0.8 mph1.3 kmh 30.15 in1021.0 mb 0.00 in0.0 mm 0.00 in0.0 mm 0.08 in2.0 mm
09:46 AM 41.7°F5.4°C 45.0°F7.2°C 89% Calm Calm -- 30.15 in1021.0 mb 0.00 in0.0 mm 0.00 in0.0 mm 0.08 in2.0 mm
09:49 AM 41.8°F5.4°C 45.2°F7.3°C 89% Calm Calm -- 30.15 in1021.0 mb 0.00 in0.0 mm 0.00 in0.0 mm 0.08 in2.0 mm
09:52 AM 42.0°F5.6°C 45.0°F7.2°C 88% Calm Calm -- 30.15 in1021.0 mb 0.00 in0.0 mm 0.00 in0.0 mm 0.08 in2.0 mm
09:55 AM 41.9°F5.5°C 45.3°F7.4°C 89% 2.0 mph WSW3.2 kmh WSW 2.0 mph3.2 kmh 30.15 in1021.0 mb 0.00 in0.0 mm 0.00 in0.0 mm 0.08 in2.0 mm
09:58 AM 42.0°F5.6°C 45.3°F7.4°C 89% 0.8 mph SW1.3 kmh SW 0.8 mph1.3 kmh 30.15 in1021.0 mb 0.00 in0.0 mm 0.00 in0.0 mm 0.08 in2.0 mm
10:01 AM 42.1°F5.6°C 45.0°F7.2°C 88% Calm Calm -- 30.15 in1021.0 mb 0.00 in0.0 mm 0.00 in0.0 mm 0.08 in2.0 mm
10:04 AM 42.4°F5.8°C 45.3°F7.4°C 89% Calm Calm -- 30.15 in1021.0 mb 0.00 in0.0 mm 0.00 in0.0 mm 0.08 in2.0 mm
10:07 AM 42.6°F5.9°C 45.5°F7.5°C 89% Calm Calm -- 30.15 in1021.0 mb 0.00 in0.0 mm 0.00 in0.0 mm 0.08 in2.0 mm
10:10 AM 42.5°F5.8°C 45.6°F7.6°C 89% 1.2 mph NNW1.9 kmh NNW 1.2 mph1.9 kmh 30.15 in1021.0 mb 0.00 in0.0 mm 0.00 in0.0 mm 0.08 in2.0 mm
10:13 AM 42.2°F5.7°C 45.4°F7.4°C 89% 3.1 mph WSW5.0 kmh WSW 3.1 mph5.0 kmh 30.15 in1021.0 mb 0.00 in0.0 mm 0.00 in0.0 mm 0.08 in2.0 mm
10:16 AM 42.4°F5.8°C 45.4°F7.4°C 89% Calm Calm -- 30.14 in1020.7 mb 0.00 in0.0 mm 0.00 in0.0 mm 0.08 in2.0 mm
10:19 AM 42.6°F5.9°C 45.7°F7.6°C 89% Calm Calm -- 30.14 in1020.7 mb 0.00 in0.0 mm 0.00 in0.0 mm 0.08 in2.0 mm
10:22 AM 42.9°F6.1°C 45.5°F7.5°C 89% Calm Calm -- 30.14 in1020.7 mb 0.00 in0.0 mm 0.00 in0.0 mm 0.10 in2.5 mm
10:25 AM 42.9°F6.1°C 45.5°F7.5°C 89% 0.8 mph NNW1.3 kmh NNW 0.8 mph1.3 kmh 30.15 in1021.0 mb 0.00 in0.0 mm 0.00 in0.0 mm 0.10 in2.5 mm
10:28 AM 43.0°F6.1°C 45.8°F7.7°C 90% 1.6 mph SW2.6 kmh SW 1.6 mph2.6 kmh 30.14 in1020.7 mb 0.00 in0.0 mm 0.00 in0.0 mm 0.10 in2.5 mm
10:31 AM 43.0°F6.1°C 45.9°F7.7°C 89% 0.4 mph WSW0.6 kmh WSW 0.4 mph0.6 kmh 30.14 in1020.7 mb 0.00 in0.0 mm 0.00 in0.0 mm 0.10 in2.5 mm
10:34 AM 42.7°F5.9°C 45.9°F7.7°C 89% 1.6 mph SW2.6 kmh SW 1.6 mph2.6 kmh 30.14 in1020.7 mb 0.00 in0.0 mm 0.00 in0.0 mm 0.10 in2.5 mm
10:37 AM 42.7°F5.9°C 45.8°F7.7°C 89% 0.8 mph SW1.3 kmh SW 0.8 mph1.3 kmh 30.15 in1021.0 mb 0.00 in0.0 mm 0.00 in0.0 mm 0.10 in2.5 mm
10:40 AM 42.8°F6.0°C 45.9°F7.7°C 89% 0.4 mph NNW0.6 kmh NNW 0.4 mph0.6 kmh 30.15 in1021.0 mb 0.00 in0.0 mm 0.00 in0.0 mm 0.10 in2.5 mm
10:43 AM 43.0°F6.1°C 45.8°F7.7°C 89% 0.8 mph NNW1.3 kmh NNW 0.8 mph1.3 kmh 30.15 in1021.0 mb 0.00 in0.0 mm 0.00 in0.0 mm 0.10 in2.5 mm
10:46 AM 42.8°F6.0°C 45.8°F7.7°C 88% 1.6 mph SW2.6 kmh SW 1.6 mph2.6 kmh 30.15 in1021.0 mb 0.00 in0.0 mm 0.00 in0.0 mm 0.10 in2.5 mm
10:49 AM 42.9°F6.1°C 46.1°F7.8°C 90% Calm Calm -- 30.15 in1021.0 mb 0.00 in0.0 mm 0.00 in0.0 mm 0.10 in2.5 mm
10:52 AM 42.9°F6.1°C 46.0°F7.8°C 89% 1.6 mph WSW2.6 kmh WSW 1.6 mph2.6 kmh 30.15 in1021.0 mb 0.00 in0.0 mm 0.00 in0.0 mm 0.10 in2.5 mm
10:55 AM 43.1°F6.2°C 45.9°F7.7°C 89% Calm Calm -- 30.15 in1021.0 mb 0.00 in0.0 mm 0.00 in0.0 mm 0.10 in2.5 mm
10:58 AM 43.3°F6.3°C 46.0°F7.8°C 89% Calm Calm -- 30.15 in1021.0 mb 0.00 in0.0 mm 0.00 in0.0 mm 0.10 in2.5 mm
11:01 AM 43.3°F6.3°C 46.2°F7.9°C 89% 1.2 mph WSW1.9 kmh WSW 1.2 mph1.9 kmh 30.15 in1021.0 mb 0.00 in0.0 mm 0.00 in0.0 mm 0.10 in2.5 mm
11:04 AM 43.5°F6.4°C 46.2°F7.9°C 89% Calm Calm -- 30.15 in1021.0 mb 0.00 in0.0 mm 0.00 in0.0 mm 0.10 in2.5 mm
11:10 AM 43.3°F6.3°C 46.2°F7.9°C 89% 1.6 mph NNW2.6 kmh NNW 1.6 mph2.6 kmh 30.14 in1020.7 mb 0.00 in0.0 mm 0.00 in0.0 mm 0.10 in2.5 mm
11:13 AM 43.7°F6.5°C 46.2°F7.9°C 89% Calm Calm -- 30.14 in1020.7 mb 0.00 in0.0 mm 0.00 in0.0 mm 0.10 in2.5 mm
11:16 AM 43.6°F6.4°C 46.3°F7.9°C 89% 1.2 mph WSW1.9 kmh WSW 1.2 mph1.9 kmh 30.14 in1020.7 mb 0.00 in0.0 mm 0.00 in0.0 mm 0.10 in2.5 mm
11:19 AM 43.8°F6.6°C 46.3°F7.9°C 89% Calm Calm -- 30.14 in1020.7 mb 0.00 in0.0 mm 0.00 in0.0 mm 0.10 in2.5 mm
11:22 AM 44.0°F6.7°C 46.6°F8.1°C 89% Calm Calm -- 30.14 in1020.7 mb 0.00 in0.0 mm 0.00 in0.0 mm 0.10 in2.5 mm
11:25 AM 43.8°F6.6°C 46.7°F8.2°C 89% Calm Calm -- 30.15 in1021.0 mb 0.00 in0.0 mm 0.00 in0.0 mm 0.10 in2.5 mm
11:28 AM 43.6°F6.4°C 46.4°F8.0°C 89% Calm Calm -- 30.15 in1021.0 mb 0.00 in0.0 mm 0.00 in0.0 mm 0.10 in2.5 mm
11:31 AM 43.8°F6.6°C 46.2°F7.9°C 88% Calm Calm -- 30.15 in1021.0 mb 0.00 in0.0 mm 0.00 in0.0 mm 0.10 in2.5 mm
11:34 AM 43.8°F6.6°C 46.7°F8.2°C 89% Calm Calm -- 30.14 in1020.7 mb 0.00 in0.0 mm 0.00 in0.0 mm 0.10 in2.5 mm
11:37 AM 43.8°F6.6°C 46.4°F8.0°C 88% Calm Calm -- 30.15 in1021.0 mb 0.00 in0.0 mm 0.00 in0.0 mm 0.10 in2.5 mm
11:40 AM 43.9°F6.6°C 46.6°F8.1°C 88% Calm Calm -- 30.14 in1020.7 mb 0.00 in0.0 mm 0.00 in0.0 mm 0.10 in2.5 mm
11:43 AM 43.9°F6.6°C 46.4°F8.0°C 89% Calm Calm -- 30.14 in1020.7 mb 0.00 in0.0 mm 0.00 in0.0 mm 0.10 in2.5 mm
11:46 AM 44.2°F6.8°C 46.8°F8.2°C 89% Calm Calm -- 30.14 in1020.7 mb 0.00 in0.0 mm 0.00 in0.0 mm 0.10 in2.5 mm
11:49 AM 43.8°F6.6°C 46.7°F8.2°C 89% 2.0 mph WSW3.2 kmh WSW 2.0 mph3.2 kmh 30.14 in1020.7 mb 0.00 in0.0 mm 0.00 in0.0 mm 0.10 in2.5 mm
11:52 AM 43.9°F6.6°C 46.5°F8.1°C 88% Calm Calm -- 30.14 in1020.7 mb 0.00 in0.0 mm 0.00 in0.0 mm 0.10 in2.5 mm
11:55 AM 44.4°F6.9°C 46.6°F8.1°C 89% 2.3 mph NW3.7 kmh NW 2.3 mph3.7 kmh 30.14 in1020.7 mb 0.00 in0.0 mm 0.00 in0.0 mm 0.10 in2.5 mm
11:58 AM 44.3°F6.8°C 46.7°F8.2°C 88% 2.4 mph WSW3.9 kmh WSW 2.4 mph3.9 kmh 30.14 in1020.7 mb 0.00 in0.0 mm 0.00 in0.0 mm 0.10 in2.5 mm
12:01 PM 44.6°F7.0°C 46.9°F8.3°C 89% 1.6 mph NW2.6 kmh NW 1.6 mph2.6 kmh 30.14 in1020.7 mb 0.00 in0.0 mm 0.00 in0.0 mm 0.10 in2.5 mm
12:04 PM 44.5°F6.9°C 46.9°F8.3°C 89% 1.2 mph WNW1.9 kmh WNW 1.2 mph1.9 kmh 30.14 in1020.7 mb 0.00 in0.0 mm 0.00 in0.0 mm 0.10 in2.5 mm
12:07 PM 44.3°F6.8°C 46.8°F8.2°C 89% 1.6 mph WSW2.6 kmh WSW 1.6 mph2.6 kmh 30.14 in1020.7 mb 0.00 in0.0 mm 0.00 in0.0 mm 0.10 in2.5 mm
12:10 PM 44.2°F6.8°C 46.6°F8.1°C 88% 1.2 mph W1.9 kmh W 1.2 mph1.9 kmh 30.13 in1020.3 mb 0.00 in0.0 mm 0.00 in0.0 mm 0.10 in2.5 mm
12:13 PM 44.3°F6.8°C 46.9°F8.3°C 88% 2.0 mph W3.2 kmh W 2.0 mph3.2 kmh 30.13 in1020.3 mb 0.00 in0.0 mm 0.00 in0.0 mm 0.10 in2.5 mm
12:16 PM 44.5°F6.9°C 46.8°F8.2°C 88% 0.4 mph W0.6 kmh W 0.4 mph0.6 kmh 30.13 in1020.3 mb 0.00 in0.0 mm 0.00 in0.0 mm 0.10 in2.5 mm
12:19 PM 44.7°F7.1°C 46.9°F8.3°C 88% Calm Calm -- 30.13 in1020.3 mb 0.00 in0.0 mm 0.00 in0.0 mm 0.10 in2.5 mm
12:22 PM 44.6°F7.0°C 47.0°F8.3°C 89% 0.8 mph WSW1.3 kmh WSW 0.8 mph1.3 kmh 30.13 in1020.3 mb 0.00 in0.0 mm 0.00 in0.0 mm 0.10 in2.5 mm
12:25 PM 44.8°F7.1°C 47.0°F8.3°C 89% 0.4 mph WNW0.6 kmh WNW 0.4 mph0.6 kmh 30.13 in1020.3 mb 0.00 in0.0 mm 0.00 in0.0 mm 0.10 in2.5 mm
12:28 PM 44.6°F7.0°C 47.2°F8.4°C 89% 0.4 mph WSW0.6 kmh WSW 0.4 mph0.6 kmh 30.13 in1020.3 mb 0.00 in0.0 mm 0.00 in0.0 mm 0.10 in2.5 mm
12:31 PM 44.6°F7.0°C 47.0°F8.3°C 88% 0.4 mph W0.6 kmh W 0.4 mph0.6 kmh 30.13 in1020.3 mb 0.00 in0.0 mm 0.00 in0.0 mm 0.10 in2.5 mm
12:34 PM 45.3°F7.4°C 47.2°F8.4°C 89% 0.4 mph WSW0.6 kmh WSW 0.4 mph0.6 kmh 30.13 in1020.3 mb 0.00 in0.0 mm 0.00 in0.0 mm 0.10 in2.5 mm
12:37 PM 45.4°F7.4°C 47.3°F8.5°C 89% Calm Calm -- 30.12 in1020.0 mb 0.00 in0.0 mm 0.00 in0.0 mm 0.10 in2.5 mm
12:40 PM 45.6°F7.6°C 47.6°F8.7°C 89% 2.0 mph NNW3.2 kmh NNW 2.0 mph3.2 kmh 30.13 in1020.3 mb 0.00 in0.0 mm 0.00 in0.0 mm 0.10 in2.5 mm
12:43 PM 46.1°F7.8°C 47.6°F8.7°C 89% 0.4 mph NW0.6 kmh NW 0.4 mph0.6 kmh 30.13 in1020.3 mb 0.00 in0.0 mm 0.00 in0.0 mm 0.10 in2.5 mm
12:46 PM 45.8°F7.7°C 47.6°F8.7°C 89% 2.7 mph WSW4.3 kmh WSW 2.7 mph4.3 kmh 30.13 in1020.3 mb 0.00 in0.0 mm 0.00 in0.0 mm 0.10 in2.5 mm
12:49 PM 46.1°F7.8°C 47.4°F8.6°C 88% Calm Calm -- 30.12 in1020.0 mb 0.00 in0.0 mm 0.00 in0.0 mm 0.10 in2.5 mm
12:52 PM 45.7°F7.6°C 47.6°F8.7°C 88% 2.4 mph NW3.9 kmh NW 2.4 mph3.9 kmh 30.13 in1020.3 mb 0.00 in0.0 mm 0.00 in0.0 mm 0.10 in2.5 mm
12:55 PM 45.3°F7.4°C 47.6°F8.7°C 88% Calm Calm -- 30.12 in1020.0 mb 0.00 in0.0 mm 0.00 in0.0 mm 0.10 in2.5 mm
12:58 PM 44.9°F7.2°C 47.5°F8.6°C 88% 2.8 mph WSW4.5 kmh WSW 2.9 mph4.7 kmh 30.12 in1020.0 mb 0.00 in0.0 mm 0.00 in0.0 mm 0.10 in2.5 mm
01:01 PM 45.3°F7.4°C 47.5°F8.6°C 88% Calm Calm -- 30.12 in1020.0 mb 0.00 in0.0 mm 0.00 in0.0 mm 0.10 in2.5 mm
01:04 PM 45.4°F7.4°C 47.6°F8.7°C 88% 3.6 mph WSW5.8 kmh WSW 3.6 mph5.8 kmh 30.11 in1019.6 mb 0.00 in0.0 mm 0.00 in0.0 mm 0.10 in2.5 mm
01:07 PM 46.1°F7.8°C 47.7°F8.7°C 88% 2.4 mph WSW3.9 kmh WSW 2.5 mph4.0 kmh 30.12 in1020.0 mb 0.00 in0.0 mm 0.00 in0.0 mm 0.10 in2.5 mm
01:10 PM 46.3°F7.9°C 47.9°F8.8°C 88% Calm Calm -- 30.12 in1020.0 mb 0.00 in0.0 mm 0.00 in0.0 mm 0.10 in2.5 mm
01:13 PM 46.7°F8.2°C 47.9°F8.8°C 89% 0.8 mph NNW1.3 kmh NNW 0.8 mph1.3 kmh 30.12 in1020.0 mb 0.00 in0.0 mm 0.00 in0.0 mm 0.10 in2.5 mm
01:16 PM 47.0°F8.3°C 47.6°F8.7°C 87% 1.2 mph W1.9 kmh W 1.2 mph1.9 kmh 30.11 in1019.6 mb 0.00 in0.0 mm 0.00 in0.0 mm 0.10 in2.5 mm
01:19 PM 46.7°F8.2°C 48.2°F9.0°C 88% 1.2 mph W1.9 kmh W 1.2 mph1.9 kmh 30.11 in1019.6 mb 0.00 in0.0 mm 0.00 in0.0 mm 0.10 in2.5 mm
01:22 PM 46.3°F7.9°C 48.1°F8.9°C 88% 0.8 mph NNW1.3 kmh NNW 0.8 mph1.3 kmh 30.12 in1020.0 mb 0.00 in0.0 mm 0.00 in0.0 mm 0.10 in2.5 mm
01:25 PM 46.4°F8.0°C 48.0°F8.9°C 87% Calm Calm -- 30.11 in1019.6 mb 0.00 in0.0 mm 0.00 in0.0 mm 0.10 in2.5 mm
01:28 PM 46.1°F7.8°C 48.0°F8.9°C 87% 1.2 mph WNW1.9 kmh WNW 1.2 mph1.9 kmh 30.11 in1019.6 mb 0.00 in0.0 mm 0.00 in0.0 mm 0.10 in2.5 mm
01:31 PM 46.4°F8.0°C 48.2°F9.0°C 88% Calm Calm -- 30.11 in1019.6 mb 0.00 in0.0 mm 0.00 in0.0 mm 0.10 in2.5 mm
01:34 PM 46.2°F7.9°C 48.0°F8.9°C 87% 2.8 mph NNW4.5 kmh NNW 2.8 mph4.5 kmh 30.11 in1019.6 mb 0.00 in0.0 mm 0.00 in0.0 mm 0.10 in2.5 mm
01:37 PM 46.3°F7.9°C 47.9°F8.8°C 87% 1.6 mph NNW2.6 kmh NNW 1.6 mph2.6 kmh 30.11 in1019.6 mb 0.00 in0.0 mm 0.00 in0.0 mm 0.10 in2.5 mm
01:40 PM 46.4°F8.0°C 47.9°F8.8°C 87% 1.2 mph NNW1.9 kmh NNW 1.2 mph1.9 kmh 30.11 in1019.6 mb 0.00 in0.0 mm 0.00 in0.0 mm 0.10 in2.5 mm
01:43 PM 46.2°F7.9°C 47.9°F8.8°C 87% 2.0 mph NNW3.2 kmh NNW 2.0 mph3.2 kmh 30.11 in1019.6 mb 0.00 in0.0 mm 0.00 in0.0 mm 0.10 in2.5 mm
01:46 PM 46.3°F7.9°C 48.2°F9.0°C 87% 2.4 mph NW3.9 kmh NW 2.4 mph3.9 kmh 30.11 in1019.6 mb 0.00 in0.0 mm 0.00 in0.0 mm 0.10 in2.5 mm
01:49 PM 46.9°F8.3°C 47.9°F8.8°C 87% Calm Calm -- 30.11 in1019.6 mb 0.00 in0.0 mm 0.00 in0.0 mm 0.10 in2.5 mm
01:55 PM 46.4°F8.0°C 48.0°F8.9°C 87% 1.6 mph NNW2.6 kmh NNW 1.6 mph2.6 kmh 30.10 in1019.3 mb 0.00 in0.0 mm 0.00 in0.0 mm 0.10 in2.5 mm
01:58 PM 46.3°F7.9°C 47.7°F8.7°C 86% Calm Calm -- 30.10 in1019.3 mb 0.00 in0.0 mm 0.00 in0.0 mm 0.10 in2.5 mm
02:01 PM 46.2°F7.9°C 48.2°F9.0°C 87% 1.2 mph W1.9 kmh W 1.2 mph1.9 kmh 30.10 in1019.3 mb 0.00 in0.0 mm 0.00 in0.0 mm 0.10 in2.5 mm
02:07 PM 46.3°F7.9°C 48.1°F8.9°C 86% 2.0 mph WSW3.2 kmh WSW 2.0 mph3.2 kmh 30.10 in1019.3 mb 0.00 in0.0 mm 0.00 in0.0 mm 0.10 in2.5 mm
02:10 PM 46.3°F7.9°C 48.1°F8.9°C 86% 0.4 mph SW0.6 kmh SW 0.4 mph0.6 kmh 30.10 in1019.3 mb 0.00 in0.0 mm 0.00 in0.0 mm 0.10 in2.5 mm
02:13 PM 46.9°F8.3°C 48.1°F8.9°C 86% 1.2 mph W1.9 kmh W 1.2 mph1.9 kmh 30.10 in1019.3 mb 0.00 in0.0 mm 0.00 in0.0 mm 0.10 in2.5 mm
02:16 PM 46.6°F8.1°C 48.3°F9.1°C 87% 1.2 mph NW1.9 kmh NW 1.2 mph1.9 kmh 30.10 in1019.3 mb 0.00 in0.0 mm 0.00 in0.0 mm 0.10 in2.5 mm
02:19 PM 46.7°F8.2°C 48.4°F9.1°C 87% 0.8 mph NNW1.3 kmh NNW 0.8 mph1.3 kmh 30.10 in1019.3 mb 0.00 in0.0 mm 0.00 in0.0 mm 0.10 in2.5 mm
02:22 PM 46.9°F8.3°C 48.5°F9.2°C 87% Calm Calm -- 30.10 in1019.3 mb 0.00 in0.0 mm 0.00 in0.0 mm 0.10 in2.5 mm
02:25 PM 46.9°F8.3°C 48.4°F9.1°C 87% 1.6 mph W2.6 kmh W 1.6 mph2.6 kmh 30.10 in1019.3 mb 0.00 in0.0 mm 0.00 in0.0 mm 0.10 in2.5 mm
02:28 PM 47.0°F8.3°C 48.4°F9.1°C 87% 1.6 mph NNW2.6 kmh NNW 1.6 mph2.6 kmh 30.10 in1019.3 mb 0.00 in0.0 mm 0.00 in0.0 mm 0.10 in2.5 mm
02:31 PM 46.7°F8.2°C 48.3°F9.1°C 86% 0.8 mph W1.3 kmh W 0.8 mph1.3 kmh 30.10 in1019.3 mb 0.00 in0.0 mm 0.00 in0.0 mm 0.10 in2.5 mm
02:34 PM 46.9°F8.3°C 48.4°F9.1°C 87% 1.2 mph NNW1.9 kmh NNW 1.2 mph1.9 kmh 30.10 in1019.3 mb 0.00 in0.0 mm 0.00 in0.0 mm 0.10 in2.5 mm
02:37 PM 46.9°F8.3°C 48.4°F9.1°C 86% 1.6 mph NW2.6 kmh NW 1.6 mph2.6 kmh 30.10 in1019.3 mb 0.00 in0.0 mm 0.00 in0.0 mm 0.10 in2.5 mm
02:40 PM 47.0°F8.3°C 48.4°F9.1°C 86% 2.3 mph NNW3.7 kmh NNW 2.3 mph3.7 kmh 30.10 in1019.3 mb 0.00 in0.0 mm 0.00 in0.0 mm 0.10 in2.5 mm
02:43 PM 47.0°F8.3°C 48.6°F9.2°C 86% 0.4 mph NNW0.6 kmh NNW 0.4 mph0.6 kmh 30.10 in1019.3 mb 0.00 in0.0 mm 0.00 in0.0 mm 0.10 in2.5 mm
02:46 PM 47.0°F8.3°C 48.3°F9.1°C 86% 0.4 mph NNW0.6 kmh NNW 0.4 mph0.6 kmh 30.10 in1019.3 mb 0.00 in0.0 mm 0.00 in0.0 mm 0.10 in2.5 mm
02:49 PM 47.2°F8.4°C 48.5°F9.2°C 86% 1.2 mph W1.9 kmh W 1.2 mph1.9 kmh 30.10 in1019.3 mb 0.00 in0.0 mm 0.00 in0.0 mm 0.10 in2.5 mm
02:52 PM 47.1°F8.4°C 48.7°F9.3°C 86% Calm Calm -- 30.10 in1019.3 mb 0.00 in0.0 mm 0.00 in0.0 mm 0.10 in2.5 mm
02:55 PM 47.2°F8.4°C 48.9°F9.4°C 86% 1.2 mph W1.9 kmh W 1.2 mph1.9 kmh 30.10 in1019.3 mb 0.00 in0.0 mm 0.00 in0.0 mm 0.10 in2.5 mm
02:58 PM 47.4°F8.6°C 48.6°F9.2°C 86% Calm Calm -- 30.09 in1019.0 mb 0.00 in0.0 mm 0.00 in0.0 mm 0.10 in2.5 mm
03:01 PM 47.2°F8.4°C 49.0°F9.4°C 87% 2.0 mph W3.2 kmh W 2.0 mph3.2 kmh 30.10 in1019.3 mb 0.00 in0.0 mm 0.00 in0.0 mm 0.10 in2.5 mm
03:04 PM 47.3°F8.5°C 48.8°F9.3°C 86% 2.0 mph W3.2 kmh W 2.0 mph3.2 kmh 30.09 in1019.0 mb 0.00 in0.0 mm 0.00 in0.0 mm 0.10 in2.5 mm
03:07 PM 47.8°F8.8°C 49.1°F9.5°C 87% Calm Calm -- 30.09 in1019.0 mb 0.00 in0.0 mm 0.00 in0.0 mm 0.10 in2.5 mm
03:10 PM 47.5°F8.6°C 49.1°F9.5°C 87% 0.8 mph W1.3 kmh W 0.8 mph1.3 kmh 30.10 in1019.3 mb 0.00 in0.0 mm 0.00 in0.0 mm 0.10 in2.5 mm
03:13 PM 47.3°F8.5°C 49.2°F9.6°C 87% 2.8 mph WSW4.5 kmh WSW 2.8 mph4.5 kmh 30.10 in1019.3 mb 0.00 in0.0 mm 0.00 in0.0 mm 0.10 in2.5 mm
03:16 PM 47.1°F8.4°C 48.8°F9.3°C 86% 3.6 mph W5.8 kmh W 3.6 mph5.8 kmh 30.09 in1019.0 mb 0.00 in0.0 mm 0.00 in0.0 mm 0.10 in2.5 mm
03:22 PM 47.0°F8.3°C 48.6°F9.2°C 86% 1.6 mph W2.6 kmh W 1.6 mph2.6 kmh 30.10 in1019.3 mb 0.00 in0.0 mm 0.00 in0.0 mm 0.10 in2.5 mm
03:25 PM 46.9°F8.3°C 48.6°F9.2°C 86% 0.8 mph WNW1.3 kmh WNW 0.8 mph1.3 kmh 30.10 in1019.3 mb 0.00 in0.0 mm 0.00 in0.0 mm 0.10 in2.5 mm
03:28 PM 46.9°F8.3°C 48.8°F9.3°C 85% 3.2 mph SW5.1 kmh SW 3.2 mph5.1 kmh 30.10 in1019.3 mb 0.00 in0.0 mm 0.00 in0.0 mm 0.10 in2.5 mm
03:31 PM 46.9°F8.3°C 48.9°F9.4°C 86% 0.8 mph WNW1.3 kmh WNW 0.8 mph1.3 kmh 30.10 in1019.3 mb 0.00 in0.0 mm 0.00 in0.0 mm 0.10 in2.5 mm
03:34 PM 46.9°F8.3°C 48.6°F9.2°C 85% 2.4 mph NW3.9 kmh NW 2.4 mph3.9 kmh 30.10 in1019.3 mb 0.00 in0.0 mm 0.00 in0.0 mm 0.10 in2.5 mm
03:37 PM 46.6°F8.1°C 48.7°F9.3°C 85% 3.2 mph NW5.1 kmh NW 3.3 mph5.3 kmh 30.10 in1019.3 mb 0.00 in0.0 mm 0.00 in0.0 mm 0.10 in2.5 mm
03:40 PM 46.6°F8.1°C 48.6°F9.2°C 85% 1.2 mph NW1.9 kmh NW 1.2 mph1.9 kmh 30.10 in1019.3 mb 0.00 in0.0 mm 0.00 in0.0 mm 0.10 in2.5 mm
03:43 PM 46.6°F8.1°C 48.5°F9.2°C 85% 1.6 mph NW2.6 kmh NW 1.6 mph2.6 kmh 30.10 in1019.3 mb 0.00 in0.0 mm 0.00 in0.0 mm 0.10 in2.5 mm
03:46 PM 46.4°F8.0°C 48.6°F9.2°C 85% 2.8 mph NW4.5 kmh NW 2.8 mph4.5 kmh 30.10 in1019.3 mb 0.00 in0.0 mm 0.00 in0.0 mm 0.10 in2.5 mm
03:49 PM 46.4°F8.0°C 48.6°F9.2°C 85% Calm Calm -- 30.10 in1019.3 mb 0.00 in0.0 mm 0.00 in0.0 mm 0.10 in2.5 mm
03:52 PM 46.5°F8.1°C 48.3°F9.1°C 84% Calm Calm -- 30.10 in1019.3 mb 0.00 in0.0 mm 0.00 in0.0 mm 0.10 in2.5 mm
03:55 PM 46.5°F8.1°C 48.4°F9.1°C 85% 1.6 mph NW2.6 kmh NW 1.6 mph2.6 kmh 30.10 in1019.3 mb 0.00 in0.0 mm 0.00 in0.0 mm 0.10 in2.5 mm
03:58 PM 46.5°F8.1°C 48.6°F9.2°C 85% 0.4 mph NNW0.6 kmh NNW 0.4 mph0.6 kmh 30.10 in1019.3 mb 0.00 in0.0 mm 0.00 in0.0 mm 0.10 in2.5 mm
04:01 PM 46.5°F8.1°C 48.6°F9.2°C 85% 1.6 mph NNW2.6 kmh NNW 1.6 mph2.6 kmh 30.10 in1019.3 mb 0.00 in0.0 mm 0.00 in0.0 mm 0.10 in2.5 mm
04:04 PM 46.4°F8.0°C 48.6°F9.2°C 85% Calm Calm -- 30.10 in1019.3 mb 0.00 in0.0 mm 0.00 in0.0 mm 0.10 in2.5 mm
04:07 PM 46.4°F8.0°C 48.5°F9.2°C 85% 1.2 mph NW1.9 kmh NW 1.2 mph1.9 kmh 30.10 in1019.3 mb 0.00 in0.0 mm 0.00 in0.0 mm 0.10 in2.5 mm
04:10 PM 46.4°F8.0°C 48.5°F9.2°C 85% Calm Calm -- 30.10 in1019.3 mb 0.00 in0.0 mm 0.00 in0.0 mm 0.10 in2.5 mm
04:16 PM 46.3°F7.9°C 48.4°F9.1°C 85% 0.4 mph NNW0.6 kmh NNW 0.4 mph0.6 kmh 30.10 in1019.3 mb 0.00 in0.0 mm 0.00 in0.0 mm 0.10 in2.5 mm
04:19 PM 46.3°F7.9°C 48.8°F9.3°C 85% Calm Calm -- 30.10 in1019.3 mb 0.00 in0.0 mm 0.00 in0.0 mm 0.10 in2.5 mm
04:22 PM 46.3°F7.9°C 48.6°F9.2°C 85% 1.2 mph W1.9 kmh W 1.2 mph1.9 kmh 30.10 in1019.3 mb 0.00 in0.0 mm 0.00 in0.0 mm 0.10 in2.5 mm
04:25 PM 46.2°F7.9°C 48.8°F9.3°C 86% Calm Calm -- 30.10 in1019.3 mb 0.00 in0.0 mm 0.00 in0.0 mm 0.10 in2.5 mm
04:28 PM 46.2°F7.9°C 48.8°F9.3°C 85% 2.4 mph SW3.9 kmh SW 2.4 mph3.9 kmh 30.09 in1019.0 mb 0.00 in0.0 mm 0.00 in0.0 mm 0.10 in2.5 mm
04:31 PM 46.2°F7.9°C 48.9°F9.4°C 86% 1.5 mph NNW2.4 kmh NNW 1.5 mph2.4 kmh 30.10 in1019.3 mb 0.00 in0.0 mm 0.00 in0.0 mm 0.10 in2.5 mm
04:34 PM 46.2°F7.9°C 48.8°F9.3°C 85% 1.2 mph W1.9 kmh W 1.2 mph1.9 kmh 30.09 in1019.0 mb 0.00 in0.0 mm 0.00 in0.0 mm 0.10 in2.5 mm
04:37 PM 46.1°F7.8°C 48.6°F9.2°C 85% Calm Calm -- 30.09 in1019.0 mb 0.00 in0.0 mm 0.00 in0.0 mm 0.10 in2.5 mm
04:41 PM 46.1°F7.8°C 48.8°F9.3°C 85% Calm Calm -- 30.09 in1019.0 mb 0.00 in0.0 mm 0.00 in0.0 mm 0.10 in2.5 mm
04:44 PM 46.1°F7.8°C 48.7°F9.3°C 86% 0.4 mph W0.6 kmh W 0.4 mph0.6 kmh 30.09 in1019.0 mb 0.00 in0.0 mm 0.00 in0.0 mm 0.10 in2.5 mm
04:47 PM 46.1°F7.8°C 48.7°F9.3°C 86% Calm Calm -- 30.09 in1019.0 mb 0.00 in0.0 mm 0.00 in0.0 mm 0.10 in2.5 mm
04:50 PM 46.1°F7.8°C 48.6°F9.2°C 85% 0.8 mph NNW1.3 kmh NNW 0.8 mph1.3 kmh 30.10 in1019.3 mb 0.00 in0.0 mm 0.00 in0.0 mm 0.10 in2.5 mm
04:53 PM 46.0°F7.8°C 48.7°F9.3°C 86% 0.4 mph NNW0.6 kmh NNW 0.4 mph0.6 kmh 30.09 in1019.0 mb 0.00 in0.0 mm 0.00 in0.0 mm 0.10 in2.5 mm
04:56 PM 46.0°F7.8°C 48.7°F9.3°C 86% 0.4 mph NNW0.6 kmh NNW 0.4 mph0.6 kmh 30.09 in1019.0 mb 0.00 in0.0 mm 0.00 in0.0 mm 0.10 in2.5 mm
04:59 PM 46.0°F7.8°C 48.3°F9.1°C 85% Calm Calm -- 30.09 in1019.0 mb 0.00 in0.0 mm 0.00 in0.0 mm 0.10 in2.5 mm
05:02 PM 46.0°F7.8°C 48.7°F9.3°C 86% Calm Calm -- 30.09 in1019.0 mb 0.00 in0.0 mm 0.00 in0.0 mm 0.10 in2.5 mm
05:05 PM 45.8°F7.7°C 48.9°F9.4°C 86% Calm Calm -- 30.09 in1019.0 mb 0.00 in0.0 mm 0.00 in0.0 mm 0.10 in2.5 mm
05:08 PM 46.0°F7.8°C 48.7°F9.3°C 86% 1.6 mph NNW2.6 kmh NNW 1.6 mph2.6 kmh 30.09 in1019.0 mb 0.00 in0.0 mm 0.00 in0.0 mm 0.10 in2.5 mm
05:11 PM 45.8°F7.7°C 48.6°F9.2°C 85% Calm Calm -- 30.10 in1019.3 mb 0.00 in0.0 mm 0.00 in0.0 mm 0.10 in2.5 mm
05:14 PM 45.8°F7.7°C 48.7°F9.3°C 86% Calm Calm -- 30.09 in1019.0 mb 0.00 in0.0 mm 0.00 in0.0 mm 0.10 in2.5 mm
05:17 PM 45.8°F7.7°C 48.5°F9.2°C 85% 1.2 mph W1.9 kmh W 1.2 mph1.9 kmh 30.10 in1019.3 mb 0.00 in0.0 mm 0.00 in0.0 mm 0.10 in2.5 mm
05:20 PM 45.8°F7.7°C 48.4°F9.1°C 85% Calm Calm -- 30.09 in1019.0 mb 0.00 in0.0 mm 0.00 in0.0 mm 0.10 in2.5 mm
05:23 PM 45.8°F7.7°C 48.7°F9.3°C 86% Calm Calm -- 30.09 in1019.0 mb 0.00 in0.0 mm 0.00 in0.0 mm 0.10 in2.5 mm
05:26 PM 45.8°F7.7°C 48.3°F9.1°C 85% Calm Calm -- 30.10 in1019.3 mb 0.00 in0.0 mm 0.00 in0.0 mm 0.10 in2.5 mm
05:29 PM 45.8°F7.7°C 48.6°F9.2°C 85% Calm Calm -- 30.09 in1019.0 mb 0.00 in0.0 mm 0.00 in0.0 mm 0.10 in2.5 mm
05:32 PM 45.7°F7.6°C 48.4°F9.1°C 85% Calm Calm -- 30.09 in1019.0 mb 0.00 in0.0 mm 0.00 in0.0 mm 0.10 in2.5 mm
05:35 PM 45.8°F7.7°C 48.6°F9.2°C 86% Calm Calm -- 30.09 in1019.0 mb 0.00 in0.0 mm 0.00 in0.0 mm 0.10 in2.5 mm
05:38 PM 45.8°F7.7°C 48.6°F9.2°C 86% Calm Calm -- 30.09 in1019.0 mb 0.00 in0.0 mm 0.00 in0.0 mm 0.10 in2.5 mm
05:41 PM 45.7°F7.6°C 48.7°F9.3°C 86% Calm Calm -- 30.09 in1019.0 mb 0.00 in0.0 mm 0.00 in0.0 mm 0.10 in2.5 mm
05:44 PM 45.8°F7.7°C 48.7°F9.3°C 86% Calm Calm -- 30.09 in1019.0 mb 0.00 in0.0 mm 0.00 in0.0 mm 0.10 in2.5 mm
05:47 PM 45.8°F7.7°C 48.7°F9.3°C 86% Calm Calm -- 30.09 in1019.0 mb 0.00 in0.0 mm 0.00 in0.0 mm 0.10 in2.5 mm
05:50 PM 45.7°F7.6°C 48.8°F9.3°C 86% Calm Calm -- 30.09 in1019.0 mb 0.00 in0.0 mm 0.00 in0.0 mm 0.10 in2.5 mm
05:53 PM 45.7°F7.6°C 48.8°F9.3°C 86% Calm Calm -- 30.09 in1019.0 mb 0.00 in0.0 mm 0.00 in0.0 mm 0.10 in2.5 mm
05:56 PM 45.6°F7.6°C 48.7°F9.3°C 86% Calm Calm -- 30.09 in1019.0 mb 0.00 in0.0 mm 0.00 in0.0 mm 0.10 in2.5 mm
05:59 PM 45.6°F7.6°C 48.8°F9.3°C 86% Calm Calm -- 30.09 in1019.0 mb 0.00 in0.0 mm 0.00 in0.0 mm 0.10 in2.5 mm
06:02 PM 45.6°F7.6°C 48.7°F9.3°C 86% Calm Calm -- 30.09 in1019.0 mb 0.00 in0.0 mm 0.00 in0.0 mm 0.10 in2.5 mm
06:05 PM 45.7°F7.6°C 48.7°F9.3°C 86% Calm Calm -- 30.09 in1019.0 mb 0.00 in0.0 mm 0.00 in0.0 mm 0.10 in2.5 mm
06:08 PM 45.7°F7.6°C 48.8°F9.3°C 86% Calm Calm -- 30.09 in1019.0 mb 0.00 in0.0 mm 0.00 in0.0 mm 0.10 in2.5 mm
06:11 PM 45.8°F7.7°C 48.6°F9.2°C 86% Calm Calm -- 30.09 in1019.0 mb 0.00 in0.0 mm 0.00 in0.0 mm 0.10 in2.5 mm
06:14 PM 45.7°F7.6°C 48.6°F9.2°C 86% Calm Calm -- 30.09 in1019.0 mb 0.00 in0.0 mm 0.00 in0.0 mm 0.10 in2.5 mm
06:17 PM 45.7°F7.6°C 48.7°F9.3°C 86% Calm Calm -- 30.08 in1018.6 mb 0.00 in0.0 mm 0.00 in0.0 mm 0.10 in2.5 mm
06:20 PM 45.6°F7.6°C 48.8°F9.3°C 87% Calm Calm -- 30.09 in1019.0 mb 0.00 in0.0 mm 0.00 in0.0 mm 0.10 in2.5 mm
06:23 PM 45.6°F7.6°C 48.9°F9.4°C 87% Calm Calm -- 30.09 in1019.0 mb 0.00 in0.0 mm 0.00 in0.0 mm 0.10 in2.5 mm
06:26 PM 45.6°F7.6°C 48.6°F9.2°C 86% Calm Calm -- 30.09 in1019.0 mb 0.00 in0.0 mm 0.00 in0.0 mm 0.10 in2.5 mm
06:29 PM 45.6°F7.6°C 48.8°F9.3°C 86% Calm Calm -- 30.08 in1018.6 mb 0.00 in0.0 mm 0.00 in0.0 mm 0.10 in2.5 mm
06:32 PM 45.5°F7.5°C 48.9°F9.4°C 87% Calm Calm -- 30.08 in1018.6 mb 0.00 in0.0 mm 0.00 in0.0 mm 0.10 in2.5 mm
06:35 PM 45.5°F7.5°C 48.7°F9.3°C 87% Calm Calm -- 30.08 in1018.6 mb 0.00 in0.0 mm 0.00 in0.0 mm 0.10 in2.5 mm
06:38 PM 45.5°F7.5°C 48.8°F9.3°C 87% Calm Calm -- 30.08 in1018.6 mb 0.00 in0.0 mm 0.00 in0.0 mm 0.10 in2.5 mm
06:41 PM 45.5°F7.5°C 48.6°F9.2°C 87% Calm Calm -- 30.08 in1018.6 mb 0.00 in0.0 mm 0.00 in0.0 mm 0.10 in2.5 mm
06:44 PM 45.5°F7.5°C 48.8°F9.3°C 87% Calm Calm -- 30.08 in1018.6 mb 0.00 in0.0 mm 0.00 in0.0 mm 0.10 in2.5 mm
06:47 PM 45.4°F7.4°C 48.8°F9.3°C 87% Calm Calm -- 30.08 in1018.6 mb 0.00 in0.0 mm 0.00 in0.0 mm 0.10 in2.5 mm
06:50 PM 45.4°F7.4°C 48.3°F9.1°C 86% Calm Calm -- 30.08 in1018.6 mb 0.00 in0.0 mm 0.00 in0.0 mm 0.10 in2.5 mm
06:53 PM 45.4°F7.4°C 48.7°F9.3°C 87% Calm Calm -- 30.08 in1018.6 mb 0.00 in0.0 mm 0.00 in0.0 mm 0.10 in2.5 mm
06:56 PM 45.4°F7.4°C 48.7°F9.3°C 87% Calm Calm -- 30.08 in1018.6 mb 0.00 in0.0 mm 0.00 in0.0 mm 0.10 in2.5 mm
06:59 PM 45.3°F7.4°C 48.9°F9.4°C 87% Calm Calm -- 30.08 in1018.6 mb 0.00 in0.0 mm 0.00 in0.0 mm 0.10 in2.5 mm
07:02 PM 45.3°F7.4°C 48.8°F9.3°C 87% Calm Calm -- 30.08 in1018.6 mb 0.00 in0.0 mm 0.00 in0.0 mm 0.10 in2.5 mm
07:05 PM 45.3°F7.4°C 48.7°F9.3°C 87% Calm Calm -- 30.08 in1018.6 mb 0.00 in0.0 mm 0.00 in0.0 mm 0.10 in2.5 mm
07:08 PM 45.3°F7.4°C 48.9°F9.4°C 87% Calm Calm -- 30.08 in1018.6 mb 0.00 in0.0 mm 0.00 in0.0 mm 0.10 in2.5 mm
07:11 PM 45.2°F7.3°C 48.8°F9.3°C 87% Calm Calm -- 30.08 in1018.6 mb 0.00 in0.0 mm 0.00 in0.0 mm 0.10 in2.5 mm
07:14 PM 45.2°F7.3°C 48.8°F9.3°C 87% Calm Calm -- 30.08 in1018.6 mb 0.00 in0.0 mm 0.00 in0.0 mm 0.10 in2.5 mm
07:17 PM 45.2°F7.3°C 48.7°F9.3°C 87% Calm Calm -- 30.08 in1018.6 mb 0.00 in0.0 mm 0.00 in0.0 mm 0.10 in2.5 mm
07:20 PM 45.2°F7.3°C 48.7°F9.3°C 87% Calm Calm -- 30.08 in1018.6 mb 0.00 in0.0 mm 0.00 in0.0 mm 0.10 in2.5 mm
07:23 PM 44.9°F7.2°C 48.9°F9.4°C 87% Calm Calm -- 30.08 in1018.6 mb 0.00 in0.0 mm 0.00 in0.0 mm 0.10 in2.5 mm
07:26 PM 44.9°F7.2°C 48.4°F9.1°C 86% Calm Calm -- 30.08 in1018.6 mb 0.00 in0.0 mm 0.00 in0.0 mm 0.10 in2.5 mm
07:29 PM 44.7°F7.1°C 48.6°F9.2°C 87% Calm Calm -- 30.08 in1018.6 mb 0.00 in0.0 mm 0.00 in0.0 mm 0.10 in2.5 mm
07:32 PM 44.7°F7.1°C 48.7°F9.3°C 87% Calm Calm -- 30.08 in1018.6 mb 0.00 in0.0 mm 0.00 in0.0 mm 0.10 in2.5 mm
07:35 PM 44.5°F6.9°C 48.7°F9.3°C 87% Calm Calm -- 30.08 in1018.6 mb 0.00 in0.0 mm 0.00 in0.0 mm 0.10 in2.5 mm
07:38 PM 44.5°F6.9°C 48.6°F9.2°C 87% Calm Calm -- 30.08 in1018.6 mb 0.00 in0.0 mm 0.00 in0.0 mm 0.10 in2.5 mm
07:41 PM 44.3°F6.8°C 48.6°F9.2°C 87% Calm Calm -- 30.08 in1018.6 mb 0.00 in0.0 mm 0.00 in0.0 mm 0.10 in2.5 mm
07:44 PM 44.2°F6.8°C 48.4°F9.1°C 87% Calm Calm -- 30.08 in1018.6 mb 0.00 in0.0 mm 0.00 in0.0 mm 0.10 in2.5 mm
07:47 PM 44.0°F6.7°C 48.2°F9.0°C 87% Calm Calm -- 30.08 in1018.6 mb 0.00 in0.0 mm 0.00 in0.0 mm 0.10 in2.5 mm
07:50 PM 43.6°F6.4°C 48.2°F9.0°C 87% Calm Calm -- 30.08 in1018.6 mb 0.00 in0.0 mm 0.00 in0.0 mm 0.10 in2.5 mm
07:53 PM 43.0°F6.1°C 48.0°F8.9°C 87% Calm Calm -- 30.08 in1018.6 mb 0.00 in0.0 mm 0.00 in0.0 mm 0.10 in2.5 mm
07:56 PM 42.6°F5.9°C 47.8°F8.8°C 86% Calm Calm -- 30.08 in1018.6 mb 0.00 in0.0 mm 0.00 in0.0 mm 0.10 in2.5 mm
07:59 PM 42.8°F6.0°C 47.5°F8.6°C 86% Calm Calm -- 30.08 in1018.6 mb 0.00 in0.0 mm 0.00 in0.0 mm 0.10 in2.5 mm
08:02 PM 42.5°F5.8°C 47.4°F8.6°C 86% Calm Calm -- 30.08 in1018.6 mb 0.00 in0.0 mm 0.00 in0.0 mm 0.10 in2.5 mm
08:05 PM 42.1°F5.6°C 47.0°F8.3°C 85% Calm Calm -- 30.07 in1018.3 mb 0.00 in0.0 mm 0.00 in0.0 mm 0.10 in2.5 mm
08:08 PM 42.0°F5.6°C 47.0°F8.3°C 85% Calm Calm -- 30.07 in1018.3 mb 0.00 in0.0 mm 0.00 in0.0 mm 0.10 in2.5 mm
08:11 PM 42.0°F5.6°C 46.8°F8.2°C 85% Calm Calm -- 30.07 in1018.3 mb 0.00 in0.0 mm 0.00 in0.0 mm 0.10 in2.5 mm
08:14 PM 41.6°F5.3°C 46.6°F8.1°C 86% Calm Calm -- 30.07 in1018.3 mb 0.00 in0.0 mm 0.00 in0.0 mm 0.10 in2.5 mm
08:17 PM 41.8°F5.4°C 46.7°F8.2°C 85% Calm Calm -- 30.07 in1018.3 mb 0.00 in0.0 mm 0.00 in0.0 mm 0.10 in2.5 mm
08:20 PM 41.7°F5.4°C 46.4°F8.0°C 85% Calm Calm -- 30.07 in1018.3 mb 0.00 in0.0 mm 0.00 in0.0 mm 0.10 in2.5 mm
08:23 PM 41.0°F5.0°C 46.2°F7.9°C 84% Calm Calm -- 30.07 in1018.3 mb 0.00 in0.0 mm 0.00 in0.0 mm 0.10 in2.5 mm
08:26 PM 41.0°F5.0°C 45.9°F7.7°C 85% Calm Calm -- 30.07 in1018.3 mb 0.00 in0.0 mm 0.00 in0.0 mm 0.10 in2.5 mm
08:29 PM 41.2°F5.1°C 45.9°F7.7°C 85% Calm Calm -- 30.07 in1018.3 mb 0.00 in0.0 mm 0.00 in0.0 mm 0.10 in2.5 mm
08:32 PM 40.7°F4.8°C 46.1°F7.8°C 85% Calm Calm -- 30.07 in1018.3 mb 0.00 in0.0 mm 0.00 in0.0 mm 0.10 in2.5 mm
08:35 PM 40.8°F4.9°C 45.9°F7.7°C 85% Calm Calm -- 30.07 in1018.3 mb 0.00 in0.0 mm 0.00 in0.0 mm 0.10 in2.5 mm
08:38 PM 40.6°F4.8°C 45.4°F7.4°C 84% Calm Calm -- 30.07 in1018.3 mb 0.00 in0.0 mm 0.00 in0.0 mm 0.10 in2.5 mm
08:41 PM 40.7°F4.8°C 45.6°F7.6°C 85% Calm Calm -- 30.07 in1018.3 mb 0.00 in0.0 mm 0.00 in0.0 mm 0.10 in2.5 mm
08:44 PM 40.8°F4.9°C 45.5°F7.5°C 85% Calm Calm -- 30.07 in1018.3 mb 0.00 in0.0 mm 0.00 in0.0 mm 0.10 in2.5 mm
08:47 PM 40.4°F4.7°C 45.5°F7.5°C 85% Calm Calm -- 30.07 in1018.3 mb 0.00 in0.0 mm 0.00 in0.0 mm 0.10 in2.5 mm
08:50 PM 40.4°F4.7°C 45.4°F7.4°C 85% Calm Calm -- 30.07 in1018.3 mb 0.00 in0.0 mm 0.00 in0.0 mm 0.10 in2.5 mm
08:53 PM 40.3°F4.6°C 45.2°F7.3°C 86% Calm Calm -- 30.07 in1018.3 mb 0.00 in0.0 mm 0.00 in0.0 mm 0.10 in2.5 mm
08:56 PM 40.1°F4.5°C 45.1°F7.3°C 85% Calm Calm -- 30.07 in1018.3 mb 0.00 in0.0 mm 0.00 in0.0 mm 0.10 in2.5 mm
08:59 PM 40.1°F4.5°C 45.2°F7.3°C 85% Calm Calm -- 30.07 in1018.3 mb 0.00 in0.0 mm 0.00 in0.0 mm 0.10 in2.5 mm
09:02 PM 40.1°F4.5°C 45.2°F7.3°C 85% Calm Calm -- 30.06 in1017.9 mb 0.00 in0.0 mm 0.00 in0.0 mm 0.10 in2.5 mm
09:05 PM 40.0°F4.4°C 44.8°F7.1°C 85% Calm Calm -- 30.07 in1018.3 mb 0.00 in0.0 mm 0.00 in0.0 mm 0.10 in2.5 mm
09:08 PM 40.0°F4.4°C 45.1°F7.3°C 85% Calm Calm -- 30.06 in1017.9 mb 0.00 in0.0 mm 0.00 in0.0 mm 0.10 in2.5 mm
09:11 PM 39.3°F4.1°C 44.9°F7.2°C 85% Calm Calm -- 30.06 in1017.9 mb 0.00 in0.0 mm 0.00 in0.0 mm 0.10 in2.5 mm
09:14 PM 39.7°F4.3°C 44.6°F7.0°C 84% Calm Calm -- 30.06 in1017.9 mb 0.00 in0.0 mm 0.00 in0.0 mm 0.10 in2.5 mm
09:17 PM 39.7°F4.3°C 44.6°F7.0°C 85% Calm Calm -- 30.07 in1018.3 mb 0.00 in0.0 mm 0.00 in0.0 mm 0.10 in2.5 mm
09:20 PM 39.7°F4.3°C 44.5°F6.9°C 86% Calm Calm -- 30.06 in1017.9 mb 0.00 in0.0 mm 0.00 in0.0 mm 0.10 in2.5 mm
09:23 PM 39.7°F4.3°C 44.6°F7.0°C 85% Calm Calm -- 30.06 in1017.9 mb 0.00 in0.0 mm 0.00 in0.0 mm 0.10 in2.5 mm
09:26 PM 39.7°F4.3°C 44.6°F7.0°C 86% Calm Calm -- 30.06 in1017.9 mb 0.00 in0.0 mm 0.00 in0.0 mm 0.10 in2.5 mm
09:29 PM 39.3°F4.1°C 44.5°F6.9°C 85% Calm Calm -- 30.06 in1017.9 mb 0.00 in0.0 mm 0.00 in0.0 mm 0.10 in2.5 mm
09:32 PM 39.1°F3.9°C 44.2°F6.8°C 85% Calm Calm -- 30.07 in1018.3 mb 0.00 in0.0 mm 0.00 in0.0 mm 0.10 in2.5 mm
09:35 PM 39.1°F3.9°C 44.3°F6.8°C 85% Calm Calm -- 30.06 in1017.9 mb 0.00 in0.0 mm 0.00 in0.0 mm 0.10 in2.5 mm
09:38 PM 38.9°F3.8°C 44.3°F6.8°C 85% Calm Calm -- 30.06 in1017.9 mb 0.00 in0.0 mm 0.00 in0.0 mm 0.10 in2.5 mm
09:41 PM 39.0°F3.9°C 43.9°F6.6°C 85% Calm Calm -- 30.06 in1017.9 mb 0.00 in0.0 mm 0.00 in0.0 mm 0.10 in2.5 mm
09:44 PM 38.5°F3.6°C 44.0°F6.7°C 85% Calm Calm -- 30.06 in1017.9 mb 0.00 in0.0 mm 0.00 in0.0 mm 0.10 in2.5 mm
09:47 PM 38.6°F3.7°C 43.8°F6.6°C 85% Calm Calm -- 30.06 in1017.9 mb 0.00 in0.0 mm 0.00 in0.0 mm 0.10 in2.5 mm
09:50 PM 38.8°F3.8°C 43.8°F6.6°C 85% Calm Calm -- 30.06 in1017.9 mb 0.00 in0.0 mm 0.00 in0.0 mm 0.10 in2.5 mm
09:53 PM 38.2°F3.4°C 44.0°F6.7°C 86% Calm Calm -- 30.06 in1017.9 mb 0.00 in0.0 mm 0.00 in0.0 mm 0.10 in2.5 mm
09:56 PM 38.2°F3.4°C 43.7°F6.5°C 85% Calm Calm -- 30.06 in1017.9 mb 0.00 in0.0 mm 0.00 in0.0 mm 0.10 in2.5 mm
09:59 PM 38.1°F3.4°C 43.5°F6.4°C 85% Calm Calm -- 30.06 in1017.9 mb 0.00 in0.0 mm 0.00 in0.0 mm 0.10 in2.5 mm
10:02 PM 38.2°F3.4°C 43.4°F6.3°C 85% Calm Calm -- 30.06 in1017.9 mb 0.00 in0.0 mm 0.00 in0.0 mm 0.10 in2.5 mm
10:05 PM 38.6°F3.7°C 43.5°F6.4°C 86% Calm Calm -- 30.06 in1017.9 mb 0.00 in0.0 mm 0.00 in0.0 mm 0.10 in2.5 mm
10:08 PM 38.4°F3.6°C 43.3°F6.3°C 85% Calm Calm -- 30.06 in1017.9 mb 0.00 in0.0 mm 0.00 in0.0 mm 0.10 in2.5 mm
10:11 PM 38.3°F3.5°C 43.4°F6.3°C 86% Calm Calm -- 30.06 in1017.9 mb 0.00 in0.0 mm 0.00 in0.0 mm 0.10 in2.5 mm
10:14 PM 38.0°F3.3°C 43.4°F6.3°C 85% Calm Calm -- 30.06 in1017.9 mb 0.00 in0.0 mm 0.00 in0.0 mm 0.10 in2.5 mm
10:17 PM 37.9°F3.3°C 43.3°F6.3°C 85% Calm Calm -- 30.06 in1017.9 mb 0.00 in0.0 mm 0.00 in0.0 mm 0.10 in2.5 mm
10:20 PM 38.1°F3.4°C 43.3°F6.3°C 86% Calm Calm -- 30.06 in1017.9 mb 0.00 in0.0 mm 0.00 in0.0 mm 0.10 in2.5 mm
10:23 PM 38.1°F3.4°C 43.0°F6.1°C 86% Calm Calm -- 30.06 in1017.9 mb 0.00 in0.0 mm 0.00 in0.0 mm 0.10 in2.5 mm
10:26 PM 38.1°F3.4°C 43.1°F6.2°C 86% Calm Calm -- 30.06 in1017.9 mb 0.00 in0.0 mm 0.00 in0.0 mm 0.10 in2.5 mm
10:29 PM 38.1°F3.4°C 42.9°F6.1°C 86% Calm Calm -- 30.05 in1017.6 mb 0.00 in0.0 mm 0.00 in0.0 mm 0.10 in2.5 mm
10:32 PM 38.1°F3.4°C 43.1°F6.2°C 86% Calm Calm -- 30.05 in1017.6 mb 0.00 in0.0 mm 0.00 in0.0 mm 0.10 in2.5 mm
10:35 PM 38.0°F3.3°C 43.3°F6.3°C 86% Calm Calm -- 30.04 in1017.3 mb 0.00 in0.0 mm 0.00 in0.0 mm 0.10 in2.5 mm
10:38 PM 38.0°F3.3°C 42.9°F6.1°C 86% Calm Calm -- 30.04 in1017.3 mb 0.00 in0.0 mm 0.00 in0.0 mm 0.10 in2.5 mm
10:41 PM 38.2°F3.4°C 42.8°F6.0°C 85% Calm Calm -- 30.04 in1017.3 mb 0.00 in0.0 mm 0.00 in0.0 mm 0.10 in2.5 mm
10:44 PM 38.1°F3.4°C 42.8°F6.0°C 85% Calm Calm -- 30.04 in1017.3 mb 0.00 in0.0 mm 0.00 in0.0 mm 0.10 in2.5 mm
10:47 PM 38.1°F3.4°C 43.0°F6.1°C 86% Calm Calm -- 30.04 in1017.3 mb 0.00 in0.0 mm 0.00 in0.0 mm 0.10 in2.5 mm
10:50 PM 38.1°F3.4°C 42.8°F6.0°C 86% Calm Calm -- 30.04 in1017.3 mb 0.00 in0.0 mm 0.00 in0.0 mm 0.10 in2.5 mm
10:53 PM 38.0°F3.3°C 42.9°F6.1°C 86% Calm Calm -- 30.04 in1017.3 mb 0.00 in0.0 mm 0.00 in0.0 mm 0.10 in2.5 mm
10:56 PM 38.0°F3.3°C 43.1°F6.2°C 86% Calm Calm -- 30.04 in1017.3 mb 0.00 in0.0 mm 0.00 in0.0 mm 0.10 in2.5 mm
10:59 PM 38.0°F3.3°C 43.1°F6.2°C 87% Calm Calm -- 30.04 in1017.3 mb 0.00 in0.0 mm 0.00 in0.0 mm 0.10 in2.5 mm
11:02 PM 37.6°F3.1°C 42.8°F6.0°C 86% Calm Calm -- 30.04 in1017.3 mb 0.00 in0.0 mm 0.00 in0.0 mm 0.10 in2.5 mm
11:05 PM 38.2°F3.4°C 42.7°F5.9°C 86% Calm Calm -- 30.04 in1017.3 mb 0.00 in0.0 mm 0.00 in0.0 mm 0.10 in2.5 mm
11:08 PM 38.1°F3.4°C 42.7°F5.9°C 87% Calm Calm -- 30.04 in1017.3 mb 0.00 in0.0 mm 0.00 in0.0 mm 0.10 in2.5 mm
11:11 PM 38.0°F3.3°C 42.8°F6.0°C 87% Calm Calm -- 30.04 in1017.3 mb 0.00 in0.0 mm 0.00 in0.0 mm 0.10 in2.5 mm
11:14 PM 38.0°F3.3°C 42.7°F5.9°C 87% Calm Calm -- 30.04 in1017.3 mb 0.00 in0.0 mm 0.00 in0.0 mm 0.10 in2.5 mm
11:17 PM 37.6°F3.1°C 42.6°F5.9°C 86% Calm Calm -- 30.04 in1017.3 mb 0.00 in0.0 mm 0.00 in0.0 mm 0.10 in2.5 mm
11:20 PM 37.6°F3.1°C 42.6°F5.9°C 87% Calm Calm -- 30.04 in1017.3 mb 0.00 in0.0 mm 0.00 in0.0 mm 0.10 in2.5 mm
11:26 PM 37.7°F3.2°C 42.1°F5.6°C 85% Calm Calm -- 30.03 in1016.9 mb 0.00 in0.0 mm 0.00 in0.0 mm 0.10 in2.5 mm
11:29 PM 37.7°F3.2°C 42.5°F5.8°C 87% Calm Calm -- 30.04 in1017.3 mb 0.00 in0.0 mm 0.00 in0.0 mm 0.10 in2.5 mm
11:32 PM 38.0°F3.3°C 42.5°F5.8°C 87% Calm Calm -- 30.03 in1016.9 mb 0.00 in0.0 mm 0.00 in0.0 mm 0.10 in2.5 mm
11:35 PM 37.6°F3.1°C 42.5°F5.8°C 87% Calm Calm -- 30.03 in1016.9 mb 0.00 in0.0 mm 0.00 in0.0 mm 0.10 in2.5 mm
11:38 PM 38.0°F3.3°C 42.5°F5.8°C 87% Calm Calm -- 30.03 in1016.9 mb 0.00 in0.0 mm 0.00 in0.0 mm 0.10 in2.5 mm
11:41 PM 38.0°F3.3°C 42.8°F6.0°C 87% Calm Calm -- 30.03 in1016.9 mb 0.00 in0.0 mm 0.00 in0.0 mm 0.10 in2.5 mm
11:44 PM 38.1°F3.4°C 42.2°F5.7°C 86% Calm Calm -- 30.03 in1016.9 mb 0.00 in0.0 mm 0.00 in0.0 mm 0.10 in2.5 mm
11:47 PM 38.0°F3.3°C 42.5°F5.8°C 88% Calm Calm -- 30.03 in1016.9 mb 0.00 in0.0 mm 0.00 in0.0 mm 0.10 in2.5 mm
11:50 PM 38.1°F3.4°C 42.4°F5.8°C 87% Calm Calm -- 30.03 in1016.9 mb 0.00 in0.0 mm 0.00 in0.0 mm 0.10 in2.5 mm
11:53 PM 38.1°F3.4°C 42.6°F5.9°C 88% Calm Calm -- 30.03 in1016.9 mb 0.00 in0.0 mm 0.00 in0.0 mm 0.10 in2.5 mm
11:56 PM 38.2°F3.4°C 42.6°F5.9°C 87% Calm Calm -- 30.03 in1016.9 mb 0.00 in0.0 mm 0.00 in0.0 mm 0.10 in2.5 mm
11:59 PM 38.2°F3.4°C 42.9°F6.1°C 88% Calm Calm -- 30.03 in1016.9 mb 0.00 in0.0 mm 0.00 in0.0 mm 0.10 in2.5 mm